<?xml version="1.0" encoding="UTF-8" standalone="no" ?>
<gpx xmlns="http://www.topografix.com/GPX/1/1" xmlns:xsi="http://www.w3.org/2001/XMLSchema-instance" xsi:schemaLocation="http://www.topografix.com/GPX/1/1 http://www.topografix.com/GPX/1/1/gpx.xsd" version="1.1" creator="VisuGPX - https://www.visugpx.com">
  <metadata>
    <name>grand trail du Canigo</name>
  </metadata>
  <trk>
    <name><![CDATA[5339643-grand trail du Canigo]]></name>
    <trkseg>
      <trkpt lat="42.54654" lon="2.58807">
        <ele>787</ele>
        <time>2020-09-11T19:57:23Z</time>
      </trkpt>
      <trkpt lat="42.54617" lon="2.58905">
        <ele>763</ele>
        <time>2020-09-11T19:57:50Z</time>
      </trkpt>
      <trkpt lat="42.54807" lon="2.59152">
        <ele>752</ele>
        <time>2020-09-11T19:59:18Z</time>
      </trkpt>
      <trkpt lat="42.54876" lon="2.59111">
        <ele>759</ele>
        <time>2020-09-11T19:59:43Z</time>
      </trkpt>
      <trkpt lat="42.54925" lon="2.59073">
        <ele>760</ele>
        <time>2020-09-11T20:00:02Z</time>
      </trkpt>
      <trkpt lat="42.54919" lon="2.59021">
        <ele>766</ele>
        <time>2020-09-11T20:00:15Z</time>
      </trkpt>
      <trkpt lat="42.54993" lon="2.58796">
        <ele>770</ele>
        <time>2020-09-11T20:01:15Z</time>
      </trkpt>
      <trkpt lat="42.5497" lon="2.58751">
        <ele>775</ele>
        <time>2020-09-11T20:01:29Z</time>
      </trkpt>
      <trkpt lat="42.5497" lon="2.58684">
        <ele>776</ele>
        <time>2020-09-11T20:01:45Z</time>
      </trkpt>
      <trkpt lat="42.54935" lon="2.58639">
        <ele>783</ele>
        <time>2020-09-11T20:02:01Z</time>
      </trkpt>
      <trkpt lat="42.54935" lon="2.58547">
        <ele>785</ele>
        <time>2020-09-11T20:02:24Z</time>
      </trkpt>
      <trkpt lat="42.54881" lon="2.58605">
        <ele>791</ele>
        <time>2020-09-11T20:02:47Z</time>
      </trkpt>
      <trkpt lat="42.54766" lon="2.58717">
        <ele>795</ele>
        <time>2020-09-11T20:03:34Z</time>
      </trkpt>
      <trkpt lat="42.54739" lon="2.58712">
        <ele>795</ele>
        <time>2020-09-11T20:03:43Z</time>
      </trkpt>
      <trkpt lat="42.54652" lon="2.58564">
        <ele>817</ele>
        <time>2020-09-11T20:04:30Z</time>
      </trkpt>
      <trkpt lat="42.54638" lon="2.58523">
        <ele>825</ele>
        <time>2020-09-11T20:04:41Z</time>
      </trkpt>
      <trkpt lat="42.54608" lon="2.58491">
        <ele>831</ele>
        <time>2020-09-11T20:04:54Z</time>
      </trkpt>
      <trkpt lat="42.54589" lon="2.58435">
        <ele>838</ele>
        <time>2020-09-11T20:05:09Z</time>
      </trkpt>
      <trkpt lat="42.54592" lon="2.58365">
        <ele>846</ele>
        <time>2020-09-11T20:05:26Z</time>
      </trkpt>
      <trkpt lat="42.54552" lon="2.58378">
        <ele>848</ele>
        <time>2020-09-11T20:05:40Z</time>
      </trkpt>
      <trkpt lat="42.54502" lon="2.58272">
        <ele>867</ele>
        <time>2020-09-11T20:06:11Z</time>
      </trkpt>
      <trkpt lat="42.54374" lon="2.58137">
        <ele>901</ele>
        <time>2020-09-11T20:07:05Z</time>
      </trkpt>
      <trkpt lat="42.54342" lon="2.58081">
        <ele>912</ele>
        <time>2020-09-11T20:07:22Z</time>
      </trkpt>
      <trkpt lat="42.54266" lon="2.57998">
        <ele>931</ele>
        <time>2020-09-11T20:07:55Z</time>
      </trkpt>
      <trkpt lat="42.54195" lon="2.57933">
        <ele>944</ele>
        <time>2020-09-11T20:08:23Z</time>
      </trkpt>
      <trkpt lat="42.54136" lon="2.5783">
        <ele>963</ele>
        <time>2020-09-11T20:08:55Z</time>
      </trkpt>
      <trkpt lat="42.54138" lon="2.5779">
        <ele>969</ele>
        <time>2020-09-11T20:09:05Z</time>
      </trkpt>
      <trkpt lat="42.54091" lon="2.57764">
        <ele>971</ele>
        <time>2020-09-11T20:09:22Z</time>
      </trkpt>
      <trkpt lat="42.54089" lon="2.57717">
        <ele>979</ele>
        <time>2020-09-11T20:09:34Z</time>
      </trkpt>
      <trkpt lat="42.54042" lon="2.57661">
        <ele>976</ele>
        <time>2020-09-11T20:09:55Z</time>
      </trkpt>
      <trkpt lat="42.54117" lon="2.57532">
        <ele>993</ele>
        <time>2020-09-11T20:10:35Z</time>
      </trkpt>
      <trkpt lat="42.54108" lon="2.57408">
        <ele>994</ele>
        <time>2020-09-11T20:11:06Z</time>
      </trkpt>
      <trkpt lat="42.54113" lon="2.5723">
        <ele>1010</ele>
        <time>2020-09-11T20:11:49Z</time>
      </trkpt>
      <trkpt lat="42.54057" lon="2.5712">
        <ele>1010</ele>
        <time>2020-09-11T20:12:22Z</time>
      </trkpt>
      <trkpt lat="42.54029" lon="2.57028">
        <ele>1023</ele>
        <time>2020-09-11T20:12:47Z</time>
      </trkpt>
      <trkpt lat="42.53964" lon="2.56981">
        <ele>1020</ele>
        <time>2020-09-11T20:13:11Z</time>
      </trkpt>
      <trkpt lat="42.53948" lon="2.56893">
        <ele>1036</ele>
        <time>2020-09-11T20:13:34Z</time>
      </trkpt>
      <trkpt lat="42.53866" lon="2.56886">
        <ele>1024</ele>
        <time>2020-09-11T20:14:01Z</time>
      </trkpt>
      <trkpt lat="42.53825" lon="2.56824">
        <ele>1032</ele>
        <time>2020-09-11T20:14:21Z</time>
      </trkpt>
      <trkpt lat="42.5374" lon="2.5674">
        <ele>1033</ele>
        <time>2020-09-11T20:14:56Z</time>
      </trkpt>
      <trkpt lat="42.53703" lon="2.5665">
        <ele>1043</ele>
        <time>2020-09-11T20:15:22Z</time>
      </trkpt>
      <trkpt lat="42.53635" lon="2.56584">
        <ele>1046</ele>
        <time>2020-09-11T20:15:50Z</time>
      </trkpt>
      <trkpt lat="42.53544" lon="2.56545">
        <ele>1031</ele>
        <time>2020-09-11T20:16:22Z</time>
      </trkpt>
      <trkpt lat="42.53577" lon="2.56431">
        <ele>1020</ele>
        <time>2020-09-11T20:16:52Z</time>
      </trkpt>
      <trkpt lat="42.53623" lon="2.56397">
        <ele>1031</ele>
        <time>2020-09-11T20:17:09Z</time>
      </trkpt>
      <trkpt lat="42.53698" lon="2.56174">
        <ele>983</ele>
        <time>2020-09-11T20:18:09Z</time>
      </trkpt>
      <trkpt lat="42.53624" lon="2.56161">
        <ele>964</ele>
        <time>2020-09-11T20:18:34Z</time>
      </trkpt>
      <trkpt lat="42.53667" lon="2.56124">
        <ele>959</ele>
        <time>2020-09-11T20:18:51Z</time>
      </trkpt>
      <trkpt lat="42.53632" lon="2.56112">
        <ele>949</ele>
        <time>2020-09-11T20:19:03Z</time>
      </trkpt>
      <trkpt lat="42.53653" lon="2.56069">
        <ele>938</ele>
        <time>2020-09-11T20:19:16Z</time>
      </trkpt>
      <trkpt lat="42.53702" lon="2.5606">
        <ele>947</ele>
        <time>2020-09-11T20:19:32Z</time>
      </trkpt>
      <trkpt lat="42.53689" lon="2.56032">
        <ele>936</ele>
        <time>2020-09-11T20:19:41Z</time>
      </trkpt>
      <trkpt lat="42.53713" lon="2.55998">
        <ele>933</ele>
        <time>2020-09-11T20:19:52Z</time>
      </trkpt>
      <trkpt lat="42.53673" lon="2.55994">
        <ele>924</ele>
        <time>2020-09-11T20:20:06Z</time>
      </trkpt>
      <trkpt lat="42.53735" lon="2.55901">
        <ele>915</ele>
        <time>2020-09-11T20:20:36Z</time>
      </trkpt>
      <trkpt lat="42.53744" lon="2.55833">
        <ele>905</ele>
        <time>2020-09-11T20:20:53Z</time>
      </trkpt>
      <trkpt lat="42.53831" lon="2.55693">
        <ele>904</ele>
        <time>2020-09-11T20:21:38Z</time>
      </trkpt>
      <trkpt lat="42.53895" lon="2.55603">
        <ele>896</ele>
        <time>2020-09-11T20:22:09Z</time>
      </trkpt>
      <trkpt lat="42.53858" lon="2.55446">
        <ele>914</ele>
        <time>2020-09-11T20:22:50Z</time>
      </trkpt>
      <trkpt lat="42.53925" lon="2.55391">
        <ele>902</ele>
        <time>2020-09-11T20:23:16Z</time>
      </trkpt>
      <trkpt lat="42.53962" lon="2.55303">
        <ele>900</ele>
        <time>2020-09-11T20:23:41Z</time>
      </trkpt>
      <trkpt lat="42.53964" lon="2.552">
        <ele>915</ele>
        <time>2020-09-11T20:24:06Z</time>
      </trkpt>
      <trkpt lat="42.54061" lon="2.5515">
        <ele>894</ele>
        <time>2020-09-11T20:24:41Z</time>
      </trkpt>
      <trkpt lat="42.54132" lon="2.55131">
        <ele>883</ele>
        <time>2020-09-11T20:25:05Z</time>
      </trkpt>
      <trkpt lat="42.54184" lon="2.55146">
        <ele>865</ele>
        <time>2020-09-11T20:25:23Z</time>
      </trkpt>
      <trkpt lat="42.5426" lon="2.55026">
        <ele>860</ele>
        <time>2020-09-11T20:26:01Z</time>
      </trkpt>
      <trkpt lat="42.5431" lon="2.54996">
        <ele>836</ele>
        <time>2020-09-11T20:26:20Z</time>
      </trkpt>
      <trkpt lat="42.54378" lon="2.54882">
        <ele>817</ele>
        <time>2020-09-11T20:26:56Z</time>
      </trkpt>
      <trkpt lat="42.54462" lon="2.54816">
        <ele>782</ele>
        <time>2020-09-11T20:27:28Z</time>
      </trkpt>
      <trkpt lat="42.54475" lon="2.54749">
        <ele>764</ele>
        <time>2020-09-11T20:27:45Z</time>
      </trkpt>
      <trkpt lat="42.54538" lon="2.54725">
        <ele>762</ele>
        <time>2020-09-11T20:28:07Z</time>
      </trkpt>
      <trkpt lat="42.54494" lon="2.547">
        <ele>758</ele>
        <time>2020-09-11T20:28:23Z</time>
      </trkpt>
      <trkpt lat="42.54541" lon="2.5467">
        <ele>753</ele>
        <time>2020-09-11T20:28:40Z</time>
      </trkpt>
      <trkpt lat="42.54519" lon="2.54648">
        <ele>760</ele>
        <time>2020-09-11T20:28:49Z</time>
      </trkpt>
      <trkpt lat="42.54468" lon="2.54674">
        <ele>759</ele>
        <time>2020-09-11T20:29:07Z</time>
      </trkpt>
      <trkpt lat="42.54446" lon="2.54657">
        <ele>763</ele>
        <time>2020-09-11T20:29:16Z</time>
      </trkpt>
      <trkpt lat="42.54508" lon="2.54597">
        <ele>780</ele>
        <time>2020-09-11T20:29:41Z</time>
      </trkpt>
      <trkpt lat="42.54557" lon="2.545">
        <ele>788</ele>
        <time>2020-09-11T20:30:10Z</time>
      </trkpt>
      <trkpt lat="42.54642" lon="2.5441">
        <ele>799</ele>
        <time>2020-09-11T20:30:46Z</time>
      </trkpt>
      <trkpt lat="42.54737" lon="2.54363">
        <ele>769</ele>
        <time>2020-09-11T20:31:20Z</time>
      </trkpt>
      <trkpt lat="42.54769" lon="2.54283">
        <ele>778</ele>
        <time>2020-09-11T20:31:42Z</time>
      </trkpt>
      <trkpt lat="42.54884" lon="2.54253">
        <ele>754</ele>
        <time>2020-09-11T20:32:21Z</time>
      </trkpt>
      <trkpt lat="42.54903" lon="2.54187">
        <ele>767</ele>
        <time>2020-09-11T20:32:39Z</time>
      </trkpt>
      <trkpt lat="42.54963" lon="2.54165">
        <ele>757</ele>
        <time>2020-09-11T20:33:00Z</time>
      </trkpt>
      <trkpt lat="42.54973" lon="2.54133">
        <ele>767</ele>
        <time>2020-09-11T20:33:08Z</time>
      </trkpt>
      <trkpt lat="42.55063" lon="2.5408">
        <ele>750</ele>
        <time>2020-09-11T20:33:41Z</time>
      </trkpt>
      <trkpt lat="42.55093" lon="2.53929">
        <ele>764</ele>
        <time>2020-09-11T20:34:19Z</time>
      </trkpt>
      <trkpt lat="42.55199" lon="2.53839">
        <ele>766</ele>
        <time>2020-09-11T20:35:01Z</time>
      </trkpt>
      <trkpt lat="42.55265" lon="2.53824">
        <ele>751</ele>
        <time>2020-09-11T20:35:23Z</time>
      </trkpt>
      <trkpt lat="42.55311" lon="2.53839">
        <ele>730</ele>
        <time>2020-09-11T20:35:39Z</time>
      </trkpt>
      <trkpt lat="42.55301" lon="2.53781">
        <ele>741</ele>
        <time>2020-09-11T20:35:54Z</time>
      </trkpt>
      <trkpt lat="42.55328" lon="2.53723">
        <ele>725</ele>
        <time>2020-09-11T20:36:11Z</time>
      </trkpt>
      <trkpt lat="42.55268" lon="2.53695">
        <ele>750</ele>
        <time>2020-09-11T20:36:32Z</time>
      </trkpt>
      <trkpt lat="42.55248" lon="2.5359">
        <ele>760</ele>
        <time>2020-09-11T20:36:58Z</time>
      </trkpt>
      <trkpt lat="42.55297" lon="2.53633">
        <ele>734</ele>
        <time>2020-09-11T20:37:18Z</time>
      </trkpt>
      <trkpt lat="42.55358" lon="2.53487">
        <ele>739</ele>
        <time>2020-09-11T20:37:59Z</time>
      </trkpt>
      <trkpt lat="42.55373" lon="2.53416">
        <ele>743</ele>
        <time>2020-09-11T20:38:17Z</time>
      </trkpt>
      <trkpt lat="42.55407" lon="2.53376">
        <ele>725</ele>
        <time>2020-09-11T20:38:32Z</time>
      </trkpt>
      <trkpt lat="42.55393" lon="2.53296">
        <ele>750</ele>
        <time>2020-09-11T20:38:52Z</time>
      </trkpt>
      <trkpt lat="42.55502" lon="2.53189">
        <ele>725</ele>
        <time>2020-09-11T20:39:37Z</time>
      </trkpt>
      <trkpt lat="42.55534" lon="2.53133">
        <ele>736</ele>
        <time>2020-09-11T20:39:55Z</time>
      </trkpt>
      <trkpt lat="42.55594" lon="2.53123">
        <ele>717</ele>
        <time>2020-09-11T20:40:15Z</time>
      </trkpt>
      <trkpt lat="42.55603" lon="2.53062">
        <ele>731</ele>
        <time>2020-09-11T20:40:30Z</time>
      </trkpt>
      <trkpt lat="42.55654" lon="2.53095">
        <ele>707</ele>
        <time>2020-09-11T20:40:49Z</time>
      </trkpt>
      <trkpt lat="42.55706" lon="2.5294">
        <ele>706</ele>
        <time>2020-09-11T20:41:31Z</time>
      </trkpt>
      <trkpt lat="42.55744" lon="2.53024">
        <ele>686</ele>
        <time>2020-09-11T20:41:55Z</time>
      </trkpt>
      <trkpt lat="42.5598" lon="2.53007">
        <ele>652</ele>
        <time>2020-09-11T20:43:14Z</time>
      </trkpt>
      <trkpt lat="42.55916" lon="2.5305">
        <ele>658</ele>
        <time>2020-09-11T20:43:38Z</time>
      </trkpt>
      <trkpt lat="42.56027" lon="2.53032">
        <ele>633</ele>
        <time>2020-09-11T20:44:15Z</time>
      </trkpt>
      <trkpt lat="42.5606" lon="2.52882">
        <ele>638</ele>
        <time>2020-09-11T20:44:54Z</time>
      </trkpt>
      <trkpt lat="42.56101" lon="2.52852">
        <ele>626</ele>
        <time>2020-09-11T20:45:09Z</time>
      </trkpt>
      <trkpt lat="42.56101" lon="2.52794">
        <ele>635</ele>
        <time>2020-09-11T20:45:23Z</time>
      </trkpt>
      <trkpt lat="42.56196" lon="2.52753">
        <ele>611</ele>
        <time>2020-09-11T20:45:57Z</time>
      </trkpt>
      <trkpt lat="42.56294" lon="2.52599">
        <ele>614</ele>
        <time>2020-09-11T20:46:47Z</time>
      </trkpt>
      <trkpt lat="42.56367" lon="2.52573">
        <ele>603</ele>
        <time>2020-09-11T20:47:12Z</time>
      </trkpt>
      <trkpt lat="42.56379" lon="2.52517">
        <ele>619</ele>
        <time>2020-09-11T20:47:26Z</time>
      </trkpt>
      <trkpt lat="42.56359" lon="2.52367">
        <ele>645</ele>
        <time>2020-09-11T20:48:04Z</time>
      </trkpt>
      <trkpt lat="42.56425" lon="2.52468">
        <ele>624</ele>
        <time>2020-09-11T20:48:37Z</time>
      </trkpt>
      <trkpt lat="42.56482" lon="2.52247">
        <ele>684</ele>
        <time>2020-09-11T20:49:34Z</time>
      </trkpt>
      <trkpt lat="42.56547" lon="2.52054">
        <ele>723</ele>
        <time>2020-09-11T20:50:26Z</time>
      </trkpt>
      <trkpt lat="42.56605" lon="2.52007">
        <ele>722</ele>
        <time>2020-09-11T20:50:49Z</time>
      </trkpt>
      <trkpt lat="42.56675" lon="2.51927">
        <ele>729</ele>
        <time>2020-09-11T20:51:20Z</time>
      </trkpt>
      <trkpt lat="42.56691" lon="2.51833">
        <ele>750</ele>
        <time>2020-09-11T20:51:43Z</time>
      </trkpt>
      <trkpt lat="42.5667" lon="2.5164">
        <ele>788</ele>
        <time>2020-09-11T20:52:31Z</time>
      </trkpt>
      <trkpt lat="42.56719" lon="2.51625">
        <ele>791</ele>
        <time>2020-09-11T20:52:48Z</time>
      </trkpt>
      <trkpt lat="42.56738" lon="2.51668">
        <ele>774</ele>
        <time>2020-09-11T20:53:00Z</time>
      </trkpt>
      <trkpt lat="42.56841" lon="2.51672">
        <ele>769</ele>
        <time>2020-09-11T20:53:35Z</time>
      </trkpt>
      <trkpt lat="42.5689" lon="2.51601">
        <ele>769</ele>
        <time>2020-09-11T20:53:59Z</time>
      </trkpt>
      <trkpt lat="42.56852" lon="2.51535">
        <ele>804</ele>
        <time>2020-09-11T20:54:19Z</time>
      </trkpt>
      <trkpt lat="42.56861" lon="2.51492">
        <ele>810</ele>
        <time>2020-09-11T20:54:30Z</time>
      </trkpt>
      <trkpt lat="42.56909" lon="2.5147">
        <ele>797</ele>
        <time>2020-09-11T20:54:47Z</time>
      </trkpt>
      <trkpt lat="42.56928" lon="2.5144">
        <ele>798</ele>
        <time>2020-09-11T20:54:57Z</time>
      </trkpt>
      <trkpt lat="42.56912" lon="2.51331">
        <ele>819</ele>
        <time>2020-09-11T20:55:24Z</time>
      </trkpt>
      <trkpt lat="42.56953" lon="2.51281">
        <ele>802</ele>
        <time>2020-09-11T20:55:42Z</time>
      </trkpt>
      <trkpt lat="42.56921" lon="2.51176">
        <ele>820</ele>
        <time>2020-09-11T20:56:10Z</time>
      </trkpt>
      <trkpt lat="42.56888" lon="2.5117">
        <ele>833</ele>
        <time>2020-09-11T20:56:21Z</time>
      </trkpt>
      <trkpt lat="42.56855" lon="2.51093">
        <ele>818</ele>
        <time>2020-09-11T20:56:43Z</time>
      </trkpt>
      <trkpt lat="42.56806" lon="2.51097">
        <ele>832</ele>
        <time>2020-09-11T20:57:00Z</time>
      </trkpt>
      <trkpt lat="42.56781" lon="2.51045">
        <ele>818</ele>
        <time>2020-09-11T20:57:15Z</time>
      </trkpt>
      <trkpt lat="42.56746" lon="2.51041">
        <ele>825</ele>
        <time>2020-09-11T20:57:27Z</time>
      </trkpt>
      <trkpt lat="42.56707" lon="2.50996">
        <ele>831</ele>
        <time>2020-09-11T20:57:44Z</time>
      </trkpt>
      <trkpt lat="42.56729" lon="2.50957">
        <ele>823</ele>
        <time>2020-09-11T20:57:56Z</time>
      </trkpt>
      <trkpt lat="42.56792" lon="2.50947">
        <ele>803</ele>
        <time>2020-09-11T20:58:17Z</time>
      </trkpt>
      <trkpt lat="42.56828" lon="2.50859">
        <ele>795</ele>
        <time>2020-09-11T20:58:42Z</time>
      </trkpt>
      <trkpt lat="42.56809" lon="2.50745">
        <ele>816</ele>
        <time>2020-09-11T20:59:10Z</time>
      </trkpt>
      <trkpt lat="42.56814" lon="2.50661">
        <ele>818</ele>
        <time>2020-09-11T20:59:31Z</time>
      </trkpt>
      <trkpt lat="42.56858" lon="2.50616">
        <ele>824</ele>
        <time>2020-09-11T20:59:49Z</time>
      </trkpt>
      <trkpt lat="42.5692" lon="2.50571">
        <ele>837</ele>
        <time>2020-09-11T21:00:13Z</time>
      </trkpt>
      <trkpt lat="42.56914" lon="2.50666">
        <ele>821</ele>
        <time>2020-09-11T21:00:36Z</time>
      </trkpt>
      <trkpt lat="42.56977" lon="2.50623">
        <ele>856</ele>
        <time>2020-09-11T21:01:00Z</time>
      </trkpt>
      <trkpt lat="42.56994" lon="2.50498">
        <ele>868</ele>
        <time>2020-09-11T21:01:31Z</time>
      </trkpt>
      <trkpt lat="42.56999" lon="2.50421">
        <ele>880</ele>
        <time>2020-09-11T21:01:50Z</time>
      </trkpt>
      <trkpt lat="42.5694" lon="2.50387">
        <ele>883</ele>
        <time>2020-09-11T21:02:12Z</time>
      </trkpt>
      <trkpt lat="42.56982" lon="2.50269">
        <ele>908</ele>
        <time>2020-09-11T21:02:44Z</time>
      </trkpt>
      <trkpt lat="42.5698" lon="2.50228">
        <ele>917</ele>
        <time>2020-09-11T21:02:54Z</time>
      </trkpt>
      <trkpt lat="42.57037" lon="2.50247">
        <ele>932</ele>
        <time>2020-09-11T21:03:13Z</time>
      </trkpt>
      <trkpt lat="42.57023" lon="2.50187">
        <ele>941</ele>
        <time>2020-09-11T21:03:29Z</time>
      </trkpt>
      <trkpt lat="42.57068" lon="2.50264">
        <ele>943</ele>
        <time>2020-09-11T21:03:53Z</time>
      </trkpt>
      <trkpt lat="42.57068" lon="2.5017">
        <ele>966</ele>
        <time>2020-09-11T21:04:16Z</time>
      </trkpt>
      <trkpt lat="42.57002" lon="2.50283">
        <ele>910</ele>
        <time>2020-09-11T21:04:52Z</time>
      </trkpt>
      <trkpt lat="42.57114" lon="2.50116">
        <ele>1007</ele>
        <time>2020-09-11T21:05:47Z</time>
      </trkpt>
      <trkpt lat="42.57166" lon="2.50183">
        <ele>1027</ele>
        <time>2020-09-11T21:06:11Z</time>
      </trkpt>
      <trkpt lat="42.57177" lon="2.50129">
        <ele>1041</ele>
        <time>2020-09-11T21:06:25Z</time>
      </trkpt>
      <trkpt lat="42.572" lon="2.50183">
        <ele>1040</ele>
        <time>2020-09-11T21:06:40Z</time>
      </trkpt>
      <trkpt lat="42.5722" lon="2.50084">
        <ele>1061</ele>
        <time>2020-09-11T21:07:05Z</time>
      </trkpt>
      <trkpt lat="42.57211" lon="2.5">
        <ele>1075</ele>
        <time>2020-09-11T21:07:26Z</time>
      </trkpt>
      <trkpt lat="42.57168" lon="2.49925">
        <ele>1098</ele>
        <time>2020-09-11T21:07:49Z</time>
      </trkpt>
      <trkpt lat="42.57132" lon="2.49814">
        <ele>1120</ele>
        <time>2020-09-11T21:08:19Z</time>
      </trkpt>
      <trkpt lat="42.57117" lon="2.49679">
        <ele>1156</ele>
        <time>2020-09-11T21:08:53Z</time>
      </trkpt>
      <trkpt lat="42.57098" lon="2.49573">
        <ele>1150</ele>
        <time>2020-09-11T21:09:20Z</time>
      </trkpt>
      <trkpt lat="42.57147" lon="2.49561">
        <ele>1142</ele>
        <time>2020-09-11T21:09:36Z</time>
      </trkpt>
      <trkpt lat="42.57215" lon="2.49507">
        <ele>1110</ele>
        <time>2020-09-11T21:10:02Z</time>
      </trkpt>
      <trkpt lat="42.5725" lon="2.49453">
        <ele>1078</ele>
        <time>2020-09-11T21:10:20Z</time>
      </trkpt>
      <trkpt lat="42.57318" lon="2.49395">
        <ele>1060</ele>
        <time>2020-09-11T21:10:47Z</time>
      </trkpt>
      <trkpt lat="42.5731" lon="2.49359">
        <ele>1041</ele>
        <time>2020-09-11T21:10:56Z</time>
      </trkpt>
      <trkpt lat="42.5734" lon="2.49318">
        <ele>1024</ele>
        <time>2020-09-11T21:11:10Z</time>
      </trkpt>
      <trkpt lat="42.57335" lon="2.49288">
        <ele>1006</ele>
        <time>2020-09-11T21:11:18Z</time>
      </trkpt>
      <trkpt lat="42.57296" lon="2.49333">
        <ele>1025</ele>
        <time>2020-09-11T21:11:35Z</time>
      </trkpt>
      <trkpt lat="42.57264" lon="2.49325">
        <ele>1017</ele>
        <time>2020-09-11T21:11:46Z</time>
      </trkpt>
      <trkpt lat="42.57215" lon="2.49224">
        <ele>982</ele>
        <time>2020-09-11T21:12:16Z</time>
      </trkpt>
      <trkpt lat="42.57193" lon="2.49153">
        <ele>964</ele>
        <time>2020-09-11T21:12:35Z</time>
      </trkpt>
      <trkpt lat="42.57192" lon="2.49082">
        <ele>954</ele>
        <time>2020-09-11T21:12:52Z</time>
      </trkpt>
      <trkpt lat="42.57223" lon="2.49009">
        <ele>928</ele>
        <time>2020-09-11T21:13:13Z</time>
      </trkpt>
      <trkpt lat="42.57266" lon="2.49073">
        <ele>926</ele>
        <time>2020-09-11T21:13:34Z</time>
      </trkpt>
      <trkpt lat="42.57318" lon="2.48968">
        <ele>891</ele>
        <time>2020-09-11T21:14:05Z</time>
      </trkpt>
      <trkpt lat="42.57309" lon="2.4894">
        <ele>889</ele>
        <time>2020-09-11T21:14:13Z</time>
      </trkpt>
      <trkpt lat="42.57317" lon="2.48906">
        <ele>881</ele>
        <time>2020-09-11T21:14:21Z</time>
      </trkpt>
      <trkpt lat="42.57312" lon="2.48865">
        <ele>872</ele>
        <time>2020-09-11T21:14:32Z</time>
      </trkpt>
      <trkpt lat="42.57301" lon="2.48655">
        <ele>829</ele>
        <time>2020-09-11T21:15:23Z</time>
      </trkpt>
      <trkpt lat="42.57343" lon="2.48657">
        <ele>818</ele>
        <time>2020-09-11T21:15:37Z</time>
      </trkpt>
      <trkpt lat="42.57339" lon="2.48619">
        <ele>807</ele>
        <time>2020-09-11T21:15:47Z</time>
      </trkpt>
      <trkpt lat="42.57356" lon="2.48571">
        <ele>792</ele>
        <time>2020-09-11T21:16:00Z</time>
      </trkpt>
      <trkpt lat="42.57348" lon="2.48548">
        <ele>782</ele>
        <time>2020-09-11T21:16:06Z</time>
      </trkpt>
      <trkpt lat="42.57361" lon="2.48492">
        <ele>759</ele>
        <time>2020-09-11T21:16:20Z</time>
      </trkpt>
      <trkpt lat="42.57307" lon="2.48451">
        <ele>752</ele>
        <time>2020-09-11T21:16:41Z</time>
      </trkpt>
      <trkpt lat="42.57367" lon="2.48406">
        <ele>740</ele>
        <time>2020-09-11T21:17:04Z</time>
      </trkpt>
      <trkpt lat="42.57451" lon="2.48408">
        <ele>729</ele>
        <time>2020-09-11T21:17:32Z</time>
      </trkpt>
      <trkpt lat="42.57528" lon="2.48314">
        <ele>726</ele>
        <time>2020-09-11T21:18:07Z</time>
      </trkpt>
      <trkpt lat="42.57571" lon="2.48127">
        <ele>732</ele>
        <time>2020-09-11T21:18:55Z</time>
      </trkpt>
      <trkpt lat="42.5761" lon="2.48097">
        <ele>716</ele>
        <time>2020-09-11T21:19:10Z</time>
      </trkpt>
      <trkpt lat="42.57634" lon="2.48001">
        <ele>708</ele>
        <time>2020-09-11T21:19:35Z</time>
      </trkpt>
      <trkpt lat="42.57607" lon="2.47953">
        <ele>728</ele>
        <time>2020-09-11T21:19:49Z</time>
      </trkpt>
      <trkpt lat="42.57639" lon="2.47913">
        <ele>712</ele>
        <time>2020-09-11T21:20:04Z</time>
      </trkpt>
      <trkpt lat="42.57621" lon="2.47741">
        <ele>728</ele>
        <time>2020-09-11T21:20:47Z</time>
      </trkpt>
      <trkpt lat="42.57598" lon="2.47724">
        <ele>742</ele>
        <time>2020-09-11T21:20:55Z</time>
      </trkpt>
      <trkpt lat="42.57607" lon="2.47677">
        <ele>738</ele>
        <time>2020-09-11T21:21:07Z</time>
      </trkpt>
      <trkpt lat="42.57601" lon="2.47625">
        <ele>745</ele>
        <time>2020-09-11T21:21:20Z</time>
      </trkpt>
      <trkpt lat="42.57648" lon="2.47494">
        <ele>727</ele>
        <time>2020-09-11T21:21:56Z</time>
      </trkpt>
      <trkpt lat="42.57615" lon="2.47404">
        <ele>727</ele>
        <time>2020-09-11T21:22:21Z</time>
      </trkpt>
      <trkpt lat="42.57595" lon="2.47327">
        <ele>721</ele>
        <time>2020-09-11T21:22:41Z</time>
      </trkpt>
      <trkpt lat="42.57566" lon="2.47307">
        <ele>731</ele>
        <time>2020-09-11T21:22:52Z</time>
      </trkpt>
      <trkpt lat="42.57565" lon="2.47346">
        <ele>736</ele>
        <time>2020-09-11T21:23:01Z</time>
      </trkpt>
      <trkpt lat="42.57527" lon="2.47307">
        <ele>744</ele>
        <time>2020-09-11T21:23:17Z</time>
      </trkpt>
      <trkpt lat="42.57497" lon="2.47258">
        <ele>743</ele>
        <time>2020-09-11T21:23:33Z</time>
      </trkpt>
      <trkpt lat="42.57432" lon="2.47252">
        <ele>772</ele>
        <time>2020-09-11T21:23:54Z</time>
      </trkpt>
      <trkpt lat="42.57381" lon="2.47132">
        <ele>783</ele>
        <time>2020-09-11T21:24:28Z</time>
      </trkpt>
      <trkpt lat="42.57384" lon="2.47211">
        <ele>791</ele>
        <time>2020-09-11T21:24:48Z</time>
      </trkpt>
      <trkpt lat="42.57348" lon="2.47149">
        <ele>798</ele>
        <time>2020-09-11T21:25:07Z</time>
      </trkpt>
      <trkpt lat="42.57323" lon="2.47194">
        <ele>817</ele>
        <time>2020-09-11T21:25:21Z</time>
      </trkpt>
      <trkpt lat="42.5732" lon="2.47217">
        <ele>824</ele>
        <time>2020-09-11T21:25:27Z</time>
      </trkpt>
      <trkpt lat="42.57274" lon="2.47187">
        <ele>831</ele>
        <time>2020-09-11T21:25:44Z</time>
      </trkpt>
      <trkpt lat="42.5728" lon="2.47232">
        <ele>839</ele>
        <time>2020-09-11T21:25:55Z</time>
      </trkpt>
      <trkpt lat="42.57195" lon="2.47121">
        <ele>847</ele>
        <time>2020-09-11T21:26:34Z</time>
      </trkpt>
      <trkpt lat="42.57189" lon="2.47245">
        <ele>878</ele>
        <time>2020-09-11T21:27:05Z</time>
      </trkpt>
      <trkpt lat="42.57261" lon="2.47383">
        <ele>888</ele>
        <time>2020-09-11T21:27:47Z</time>
      </trkpt>
      <trkpt lat="42.57331" lon="2.47503">
        <ele>903</ele>
        <time>2020-09-11T21:28:24Z</time>
      </trkpt>
      <trkpt lat="42.57283" lon="2.47479">
        <ele>913</ele>
        <time>2020-09-11T21:28:41Z</time>
      </trkpt>
      <trkpt lat="42.57326" lon="2.47563">
        <ele>912</ele>
        <time>2020-09-11T21:29:06Z</time>
      </trkpt>
      <trkpt lat="42.57279" lon="2.47649">
        <ele>929</ele>
        <time>2020-09-11T21:29:33Z</time>
      </trkpt>
      <trkpt lat="42.5726" lon="2.4761">
        <ele>941</ele>
        <time>2020-09-11T21:29:44Z</time>
      </trkpt>
      <trkpt lat="42.57179" lon="2.47696">
        <ele>973</ele>
        <time>2020-09-11T21:30:18Z</time>
      </trkpt>
      <trkpt lat="42.57144" lon="2.47758">
        <ele>981</ele>
        <time>2020-09-11T21:30:38Z</time>
      </trkpt>
      <trkpt lat="42.57133" lon="2.47807">
        <ele>980</ele>
        <time>2020-09-11T21:30:50Z</time>
      </trkpt>
      <trkpt lat="42.57125" lon="2.47698">
        <ele>1002</ele>
        <time>2020-09-11T21:31:17Z</time>
      </trkpt>
      <trkpt lat="42.5704" lon="2.4782">
        <ele>1031</ele>
        <time>2020-09-11T21:31:58Z</time>
      </trkpt>
      <trkpt lat="42.57026" lon="2.4773">
        <ele>1048</ele>
        <time>2020-09-11T21:32:21Z</time>
      </trkpt>
      <trkpt lat="42.57002" lon="2.47803">
        <ele>1054</ele>
        <time>2020-09-11T21:32:41Z</time>
      </trkpt>
      <trkpt lat="42.56985" lon="2.4776">
        <ele>1066</ele>
        <time>2020-09-11T21:32:53Z</time>
      </trkpt>
      <trkpt lat="42.56967" lon="2.47801">
        <ele>1074</ele>
        <time>2020-09-11T21:33:04Z</time>
      </trkpt>
      <trkpt lat="42.56963" lon="2.47616">
        <ele>1083</ele>
        <time>2020-09-11T21:33:50Z</time>
      </trkpt>
      <trkpt lat="42.56899" lon="2.47689">
        <ele>1108</ele>
        <time>2020-09-11T21:34:18Z</time>
      </trkpt>
      <trkpt lat="42.56863" lon="2.4782">
        <ele>1118</ele>
        <time>2020-09-11T21:34:52Z</time>
      </trkpt>
      <trkpt lat="42.56841" lon="2.47771">
        <ele>1130</ele>
        <time>2020-09-11T21:35:06Z</time>
      </trkpt>
      <trkpt lat="42.56782" lon="2.4775">
        <ele>1151</ele>
        <time>2020-09-11T21:35:27Z</time>
      </trkpt>
      <trkpt lat="42.56735" lon="2.47777">
        <ele>1155</ele>
        <time>2020-09-11T21:35:44Z</time>
      </trkpt>
      <trkpt lat="42.5671" lon="2.47765">
        <ele>1164</ele>
        <time>2020-09-11T21:35:52Z</time>
      </trkpt>
      <trkpt lat="42.56686" lon="2.47792">
        <ele>1158</ele>
        <time>2020-09-11T21:36:03Z</time>
      </trkpt>
      <trkpt lat="42.56582" lon="2.47769">
        <ele>1156</ele>
        <time>2020-09-11T21:36:38Z</time>
      </trkpt>
      <trkpt lat="42.56473" lon="2.47788">
        <ele>1160</ele>
        <time>2020-09-11T21:37:15Z</time>
      </trkpt>
      <trkpt lat="42.5639" lon="2.47822">
        <ele>1173</ele>
        <time>2020-09-11T21:37:44Z</time>
      </trkpt>
      <trkpt lat="42.56334" lon="2.47898">
        <ele>1172</ele>
        <time>2020-09-11T21:38:10Z</time>
      </trkpt>
      <trkpt lat="42.56243" lon="2.48003">
        <ele>1191</ele>
        <time>2020-09-11T21:38:50Z</time>
      </trkpt>
      <trkpt lat="42.56259" lon="2.47923">
        <ele>1211</ele>
        <time>2020-09-11T21:39:10Z</time>
      </trkpt>
      <trkpt lat="42.56147" lon="2.48046">
        <ele>1222</ele>
        <time>2020-09-11T21:39:58Z</time>
      </trkpt>
      <trkpt lat="42.56092" lon="2.48136">
        <ele>1227</ele>
        <time>2020-09-11T21:40:27Z</time>
      </trkpt>
      <trkpt lat="42.56029" lon="2.48174">
        <ele>1233</ele>
        <time>2020-09-11T21:40:50Z</time>
      </trkpt>
      <trkpt lat="42.5604" lon="2.48116">
        <ele>1253</ele>
        <time>2020-09-11T21:41:05Z</time>
      </trkpt>
      <trkpt lat="42.55983" lon="2.48129">
        <ele>1251</ele>
        <time>2020-09-11T21:41:24Z</time>
      </trkpt>
      <trkpt lat="42.56024" lon="2.4808">
        <ele>1272</ele>
        <time>2020-09-11T21:41:42Z</time>
      </trkpt>
      <trkpt lat="42.55981" lon="2.48093">
        <ele>1266</ele>
        <time>2020-09-11T21:41:57Z</time>
      </trkpt>
      <trkpt lat="42.5601" lon="2.48018">
        <ele>1301</ele>
        <time>2020-09-11T21:42:18Z</time>
      </trkpt>
      <trkpt lat="42.55992" lon="2.47981">
        <ele>1316</ele>
        <time>2020-09-11T21:42:29Z</time>
      </trkpt>
      <trkpt lat="42.56029" lon="2.47949">
        <ele>1321</ele>
        <time>2020-09-11T21:42:43Z</time>
      </trkpt>
      <trkpt lat="42.55994" lon="2.47921">
        <ele>1340</ele>
        <time>2020-09-11T21:42:57Z</time>
      </trkpt>
      <trkpt lat="42.5604" lon="2.47874">
        <ele>1348</ele>
        <time>2020-09-11T21:43:16Z</time>
      </trkpt>
      <trkpt lat="42.55995" lon="2.4784">
        <ele>1379</ele>
        <time>2020-09-11T21:43:33Z</time>
      </trkpt>
      <trkpt lat="42.56074" lon="2.47756">
        <ele>1385</ele>
        <time>2020-09-11T21:44:07Z</time>
      </trkpt>
      <trkpt lat="42.56048" lon="2.47732">
        <ele>1398</ele>
        <time>2020-09-11T21:44:17Z</time>
      </trkpt>
      <trkpt lat="42.56038" lon="2.47685">
        <ele>1404</ele>
        <time>2020-09-11T21:44:29Z</time>
      </trkpt>
      <trkpt lat="42.56006" lon="2.47604">
        <ele>1419</ele>
        <time>2020-09-11T21:44:52Z</time>
      </trkpt>
      <trkpt lat="42.55991" lon="2.47447">
        <ele>1423</ele>
        <time>2020-09-11T21:45:31Z</time>
      </trkpt>
      <trkpt lat="42.55991" lon="2.47692">
        <ele>1427</ele>
        <time>2020-09-11T21:46:31Z</time>
      </trkpt>
      <trkpt lat="42.55953" lon="2.47567">
        <ele>1440</ele>
        <time>2020-09-11T21:47:04Z</time>
      </trkpt>
      <trkpt lat="42.55921" lon="2.4743">
        <ele>1466</ele>
        <time>2020-09-11T21:47:39Z</time>
      </trkpt>
      <trkpt lat="42.55905" lon="2.47413">
        <ele>1474</ele>
        <time>2020-09-11T21:47:46Z</time>
      </trkpt>
      <trkpt lat="42.55889" lon="2.47468">
        <ele>1478</ele>
        <time>2020-09-11T21:48:01Z</time>
      </trkpt>
      <trkpt lat="42.55864" lon="2.47391">
        <ele>1487</ele>
        <time>2020-09-11T21:48:21Z</time>
      </trkpt>
      <trkpt lat="42.55785" lon="2.4729">
        <ele>1511</ele>
        <time>2020-09-11T21:48:58Z</time>
      </trkpt>
      <trkpt lat="42.5581" lon="2.47438">
        <ele>1514</ele>
        <time>2020-09-11T21:49:35Z</time>
      </trkpt>
      <trkpt lat="42.55747" lon="2.47372">
        <ele>1541</ele>
        <time>2020-09-11T21:50:01Z</time>
      </trkpt>
      <trkpt lat="42.55709" lon="2.47273">
        <ele>1549</ele>
        <time>2020-09-11T21:50:29Z</time>
      </trkpt>
      <trkpt lat="42.55687" lon="2.47174">
        <ele>1563</ele>
        <time>2020-09-11T21:50:54Z</time>
      </trkpt>
      <trkpt lat="42.55633" lon="2.47333">
        <ele>1590</ele>
        <time>2020-09-11T21:51:37Z</time>
      </trkpt>
      <trkpt lat="42.55613" lon="2.47224">
        <ele>1602</ele>
        <time>2020-09-11T21:52:05Z</time>
      </trkpt>
      <trkpt lat="42.55602" lon="2.47026">
        <ele>1626</ele>
        <time>2020-09-11T21:52:54Z</time>
      </trkpt>
      <trkpt lat="42.55548" lon="2.47177">
        <ele>1636</ele>
        <time>2020-09-11T21:53:35Z</time>
      </trkpt>
      <trkpt lat="42.55542" lon="2.47095">
        <ele>1643</ele>
        <time>2020-09-11T21:53:55Z</time>
      </trkpt>
      <trkpt lat="42.55524" lon="2.47052">
        <ele>1657</ele>
        <time>2020-09-11T21:54:07Z</time>
      </trkpt>
      <trkpt lat="42.5555" lon="2.46996">
        <ele>1654</ele>
        <time>2020-09-11T21:54:24Z</time>
      </trkpt>
      <trkpt lat="42.55528" lon="2.46889">
        <ele>1685</ele>
        <time>2020-09-11T21:54:51Z</time>
      </trkpt>
      <trkpt lat="42.55656" lon="2.46732">
        <ele>1719</ele>
        <time>2020-09-11T21:55:49Z</time>
      </trkpt>
      <trkpt lat="42.55731" lon="2.46681">
        <ele>1708</ele>
        <time>2020-09-11T21:56:16Z</time>
      </trkpt>
      <trkpt lat="42.55761" lon="2.46556">
        <ele>1752</ele>
        <time>2020-09-11T21:56:49Z</time>
      </trkpt>
      <trkpt lat="42.55828" lon="2.46496">
        <ele>1753</ele>
        <time>2020-09-11T21:57:16Z</time>
      </trkpt>
      <trkpt lat="42.55774" lon="2.46488">
        <ele>1777</ele>
        <time>2020-09-11T21:57:34Z</time>
      </trkpt>
      <trkpt lat="42.55812" lon="2.46447">
        <ele>1778</ele>
        <time>2020-09-11T21:57:50Z</time>
      </trkpt>
      <trkpt lat="42.55833" lon="2.46374">
        <ele>1789</ele>
        <time>2020-09-11T21:58:09Z</time>
      </trkpt>
      <trkpt lat="42.55777" lon="2.46411">
        <ele>1808</ele>
        <time>2020-09-11T21:58:30Z</time>
      </trkpt>
      <trkpt lat="42.55847" lon="2.46308">
        <ele>1801</ele>
        <time>2020-09-11T21:59:04Z</time>
      </trkpt>
      <trkpt lat="42.55747" lon="2.46359">
        <ele>1840</ele>
        <time>2020-09-11T21:59:40Z</time>
      </trkpt>
      <trkpt lat="42.5569" lon="2.46419">
        <ele>1845</ele>
        <time>2020-09-11T22:00:04Z</time>
      </trkpt>
      <trkpt lat="42.55667" lon="2.46419">
        <ele>1856</ele>
        <time>2020-09-11T22:00:12Z</time>
      </trkpt>
      <trkpt lat="42.55637" lon="2.4649">
        <ele>1828</ele>
        <time>2020-09-11T22:00:32Z</time>
      </trkpt>
      <trkpt lat="42.55584" lon="2.46462">
        <ele>1852</ele>
        <time>2020-09-11T22:00:51Z</time>
      </trkpt>
      <trkpt lat="42.55516" lon="2.46481">
        <ele>1856</ele>
        <time>2020-09-11T22:01:14Z</time>
      </trkpt>
      <trkpt lat="42.55456" lon="2.46443">
        <ele>1863</ele>
        <time>2020-09-11T22:01:36Z</time>
      </trkpt>
      <trkpt lat="42.55422" lon="2.46492">
        <ele>1876</ele>
        <time>2020-09-11T22:01:53Z</time>
      </trkpt>
      <trkpt lat="42.55358" lon="2.46533">
        <ele>1888</ele>
        <time>2020-09-11T22:02:16Z</time>
      </trkpt>
      <trkpt lat="42.55256" lon="2.46614">
        <ele>1906</ele>
        <time>2020-09-11T22:02:56Z</time>
      </trkpt>
      <trkpt lat="42.55245" lon="2.46679">
        <ele>1906</ele>
        <time>2020-09-11T22:03:12Z</time>
      </trkpt>
      <trkpt lat="42.55199" lon="2.4675">
        <ele>1924</ele>
        <time>2020-09-11T22:03:35Z</time>
      </trkpt>
      <trkpt lat="42.55183" lon="2.46767">
        <ele>1933</ele>
        <time>2020-09-11T22:03:42Z</time>
      </trkpt>
      <trkpt lat="42.55129" lon="2.46896">
        <ele>1945</ele>
        <time>2020-09-11T22:04:19Z</time>
      </trkpt>
      <trkpt lat="42.5508" lon="2.46975">
        <ele>1951</ele>
        <time>2020-09-11T22:04:44Z</time>
      </trkpt>
      <trkpt lat="42.54973" lon="2.46928">
        <ele>1986</ele>
        <time>2020-09-11T22:05:21Z</time>
      </trkpt>
      <trkpt lat="42.54902" lon="2.46934">
        <ele>1999</ele>
        <time>2020-09-11T22:05:45Z</time>
      </trkpt>
      <trkpt lat="42.54819" lon="2.46973">
        <ele>1998</ele>
        <time>2020-09-11T22:06:14Z</time>
      </trkpt>
      <trkpt lat="42.5474" lon="2.46949">
        <ele>2005</ele>
        <time>2020-09-11T22:06:41Z</time>
      </trkpt>
      <trkpt lat="42.54721" lon="2.46904">
        <ele>2014</ele>
        <time>2020-09-11T22:06:54Z</time>
      </trkpt>
      <trkpt lat="42.54669" lon="2.46908">
        <ele>2012</ele>
        <time>2020-09-11T22:07:12Z</time>
      </trkpt>
      <trkpt lat="42.54457" lon="2.46981">
        <ele>2016</ele>
        <time>2020-09-11T22:08:25Z</time>
      </trkpt>
      <trkpt lat="42.54355" lon="2.4699">
        <ele>2037</ele>
        <time>2020-09-11T22:08:59Z</time>
      </trkpt>
      <trkpt lat="42.54239" lon="2.46936">
        <ele>2041</ele>
        <time>2020-09-11T22:09:40Z</time>
      </trkpt>
      <trkpt lat="42.54141" lon="2.46827">
        <ele>2041</ele>
        <time>2020-09-11T22:10:22Z</time>
      </trkpt>
      <trkpt lat="42.54051" lon="2.46739">
        <ele>2039</ele>
        <time>2020-09-11T22:10:59Z</time>
      </trkpt>
      <trkpt lat="42.53928" lon="2.46713">
        <ele>2045</ele>
        <time>2020-09-11T22:11:40Z</time>
      </trkpt>
      <trkpt lat="42.53858" lon="2.46608">
        <ele>2057</ele>
        <time>2020-09-11T22:12:15Z</time>
      </trkpt>
      <trkpt lat="42.53789" lon="2.46574">
        <ele>2070</ele>
        <time>2020-09-11T22:12:40Z</time>
      </trkpt>
      <trkpt lat="42.53735" lon="2.4661">
        <ele>2084</ele>
        <time>2020-09-11T22:13:00Z</time>
      </trkpt>
      <trkpt lat="42.53702" lon="2.46679">
        <ele>2082</ele>
        <time>2020-09-11T22:13:20Z</time>
      </trkpt>
      <trkpt lat="42.5361" lon="2.46677">
        <ele>2092</ele>
        <time>2020-09-11T22:13:51Z</time>
      </trkpt>
      <trkpt lat="42.5354" lon="2.46621">
        <ele>2120</ele>
        <time>2020-09-11T22:14:18Z</time>
      </trkpt>
      <trkpt lat="42.53494" lon="2.4661">
        <ele>2128</ele>
        <time>2020-09-11T22:14:33Z</time>
      </trkpt>
      <trkpt lat="42.53547" lon="2.46576">
        <ele>2136</ele>
        <time>2020-09-11T22:14:53Z</time>
      </trkpt>
      <trkpt lat="42.53436" lon="2.46567">
        <ele>2147</ele>
        <time>2020-09-11T22:15:30Z</time>
      </trkpt>
      <trkpt lat="42.53417" lon="2.46516">
        <ele>2156</ele>
        <time>2020-09-11T22:15:44Z</time>
      </trkpt>
      <trkpt lat="42.5334" lon="2.46595">
        <ele>2159</ele>
        <time>2020-09-11T22:16:16Z</time>
      </trkpt>
      <trkpt lat="42.53245" lon="2.4672">
        <ele>2175</ele>
        <time>2020-09-11T22:17:00Z</time>
      </trkpt>
      <trkpt lat="42.53186" lon="2.46773">
        <ele>2191</ele>
        <time>2020-09-11T22:17:24Z</time>
      </trkpt>
      <trkpt lat="42.53147" lon="2.46801">
        <ele>2204</ele>
        <time>2020-09-11T22:17:39Z</time>
      </trkpt>
      <trkpt lat="42.5315" lon="2.46844">
        <ele>2206</ele>
        <time>2020-09-11T22:17:49Z</time>
      </trkpt>
      <trkpt lat="42.53107" lon="2.4681">
        <ele>2214</ele>
        <time>2020-09-11T22:18:06Z</time>
      </trkpt>
      <trkpt lat="42.53071" lon="2.46896">
        <ele>2225</ele>
        <time>2020-09-11T22:18:30Z</time>
      </trkpt>
      <trkpt lat="42.53033" lon="2.46865">
        <ele>2237</ele>
        <time>2020-09-11T22:18:45Z</time>
      </trkpt>
      <trkpt lat="42.52996" lon="2.46893">
        <ele>2250</ele>
        <time>2020-09-11T22:18:59Z</time>
      </trkpt>
      <trkpt lat="42.52955" lon="2.46853">
        <ele>2260</ele>
        <time>2020-09-11T22:19:16Z</time>
      </trkpt>
      <trkpt lat="42.52955" lon="2.46908">
        <ele>2270</ele>
        <time>2020-09-11T22:19:30Z</time>
      </trkpt>
      <trkpt lat="42.52902" lon="2.46883">
        <ele>2284</ele>
        <time>2020-09-11T22:19:48Z</time>
      </trkpt>
      <trkpt lat="42.52916" lon="2.46926">
        <ele>2287</ele>
        <time>2020-09-11T22:20:00Z</time>
      </trkpt>
      <trkpt lat="42.52846" lon="2.46902">
        <ele>2306</ele>
        <time>2020-09-11T22:20:24Z</time>
      </trkpt>
      <trkpt lat="42.52781" lon="2.469">
        <ele>2318</ele>
        <time>2020-09-11T22:20:46Z</time>
      </trkpt>
      <trkpt lat="42.52751" lon="2.46913">
        <ele>2328</ele>
        <time>2020-09-11T22:20:56Z</time>
      </trkpt>
      <trkpt lat="42.52772" lon="2.46958">
        <ele>2335</ele>
        <time>2020-09-11T22:21:09Z</time>
      </trkpt>
      <trkpt lat="42.52723" lon="2.46947">
        <ele>2343</ele>
        <time>2020-09-11T22:21:26Z</time>
      </trkpt>
      <trkpt lat="42.52742" lon="2.4699">
        <ele>2351</ele>
        <time>2020-09-11T22:21:38Z</time>
      </trkpt>
      <trkpt lat="42.52721" lon="2.46981">
        <ele>2354</ele>
        <time>2020-09-11T22:21:45Z</time>
      </trkpt>
      <trkpt lat="42.52715" lon="2.47082">
        <ele>2367</ele>
        <time>2020-09-11T22:22:10Z</time>
      </trkpt>
      <trkpt lat="42.5269" lon="2.47033">
        <ele>2373</ele>
        <time>2020-09-11T22:22:25Z</time>
      </trkpt>
      <trkpt lat="42.52661" lon="2.47084">
        <ele>2394</ele>
        <time>2020-09-11T22:22:41Z</time>
      </trkpt>
      <trkpt lat="42.52609" lon="2.47048">
        <ele>2404</ele>
        <time>2020-09-11T22:23:00Z</time>
      </trkpt>
      <trkpt lat="42.52615" lon="2.47082">
        <ele>2409</ele>
        <time>2020-09-11T22:23:09Z</time>
      </trkpt>
      <trkpt lat="42.52549" lon="2.47065">
        <ele>2431</ele>
        <time>2020-09-11T22:23:31Z</time>
      </trkpt>
      <trkpt lat="42.52524" lon="2.47044">
        <ele>2437</ele>
        <time>2020-09-11T22:23:41Z</time>
      </trkpt>
      <trkpt lat="42.5253" lon="2.47117">
        <ele>2451</ele>
        <time>2020-09-11T22:23:59Z</time>
      </trkpt>
      <trkpt lat="42.52506" lon="2.47106">
        <ele>2460</ele>
        <time>2020-09-11T22:24:08Z</time>
      </trkpt>
      <trkpt lat="42.52506" lon="2.47149">
        <ele>2470</ele>
        <time>2020-09-11T22:24:18Z</time>
      </trkpt>
      <trkpt lat="42.52471" lon="2.47138">
        <ele>2477</ele>
        <time>2020-09-11T22:24:30Z</time>
      </trkpt>
      <trkpt lat="42.52468" lon="2.47172">
        <ele>2481</ele>
        <time>2020-09-11T22:24:39Z</time>
      </trkpt>
      <trkpt lat="42.52397" lon="2.47132">
        <ele>2492</ele>
        <time>2020-09-11T22:25:04Z</time>
      </trkpt>
      <trkpt lat="42.52329" lon="2.47046">
        <ele>2519</ele>
        <time>2020-09-11T22:25:35Z</time>
      </trkpt>
      <trkpt lat="42.52315" lon="2.47052">
        <ele>2521</ele>
        <time>2020-09-11T22:25:40Z</time>
      </trkpt>
      <trkpt lat="42.52244" lon="2.4699">
        <ele>2553</ele>
        <time>2020-09-11T22:26:08Z</time>
      </trkpt>
      <trkpt lat="42.52201" lon="2.46917">
        <ele>2576</ele>
        <time>2020-09-11T22:26:31Z</time>
      </trkpt>
      <trkpt lat="42.52157" lon="2.46893">
        <ele>2592</ele>
        <time>2020-09-11T22:26:47Z</time>
      </trkpt>
      <trkpt lat="42.52155" lon="2.46846">
        <ele>2603</ele>
        <time>2020-09-11T22:26:59Z</time>
      </trkpt>
      <trkpt lat="42.52138" lon="2.4678">
        <ele>2613</ele>
        <time>2020-09-11T22:27:16Z</time>
      </trkpt>
      <trkpt lat="42.52114" lon="2.46713">
        <ele>2630</ele>
        <time>2020-09-11T22:27:34Z</time>
      </trkpt>
      <trkpt lat="42.52078" lon="2.46696">
        <ele>2642</ele>
        <time>2020-09-11T22:27:47Z</time>
      </trkpt>
      <trkpt lat="42.52055" lon="2.46552">
        <ele>2665</ele>
        <time>2020-09-11T22:28:23Z</time>
      </trkpt>
      <trkpt lat="42.52021" lon="2.46501">
        <ele>2675</ele>
        <time>2020-09-11T22:28:40Z</time>
      </trkpt>
      <trkpt lat="42.51937" lon="2.46464">
        <ele>2682</ele>
        <time>2020-09-11T22:29:10Z</time>
      </trkpt>
      <trkpt lat="42.51889" lon="2.46477">
        <ele>2687</ele>
        <time>2020-09-11T22:29:26Z</time>
      </trkpt>
      <trkpt lat="42.51848" lon="2.46398">
        <ele>2697</ele>
        <time>2020-09-11T22:29:50Z</time>
      </trkpt>
      <trkpt lat="42.51834" lon="2.46389">
        <ele>2700</ele>
        <time>2020-09-11T22:29:55Z</time>
      </trkpt>
      <trkpt lat="42.51791" lon="2.46484">
        <ele>2675</ele>
        <time>2020-09-11T22:30:22Z</time>
      </trkpt>
      <trkpt lat="42.51774" lon="2.46423">
        <ele>2689</ele>
        <time>2020-09-11T22:30:38Z</time>
      </trkpt>
      <trkpt lat="42.51666" lon="2.46318">
        <ele>2665</ele>
        <time>2020-09-11T22:31:23Z</time>
      </trkpt>
      <trkpt lat="42.51681" lon="2.46368">
        <ele>2660</ele>
        <time>2020-09-11T22:31:36Z</time>
      </trkpt>
      <trkpt lat="42.51625" lon="2.46318">
        <ele>2648</ele>
        <time>2020-09-11T22:31:58Z</time>
      </trkpt>
      <trkpt lat="42.51505" lon="2.46247">
        <ele>2619</ele>
        <time>2020-09-11T22:32:42Z</time>
      </trkpt>
      <trkpt lat="42.51443" lon="2.46207">
        <ele>2603</ele>
        <time>2020-09-11T22:33:05Z</time>
      </trkpt>
      <trkpt lat="42.51402" lon="2.46123">
        <ele>2571</ele>
        <time>2020-09-11T22:33:30Z</time>
      </trkpt>
      <trkpt lat="42.51451" lon="2.4608">
        <ele>2584</ele>
        <time>2020-09-11T22:33:49Z</time>
      </trkpt>
      <trkpt lat="42.51508" lon="2.46018">
        <ele>2592</ele>
        <time>2020-09-11T22:34:13Z</time>
      </trkpt>
      <trkpt lat="42.51575" lon="2.45938">
        <ele>2608</ele>
        <time>2020-09-11T22:34:43Z</time>
      </trkpt>
      <trkpt lat="42.51641" lon="2.4587">
        <ele>2625</ele>
        <time>2020-09-11T22:35:11Z</time>
      </trkpt>
      <trkpt lat="42.51715" lon="2.45745">
        <ele>2631</ele>
        <time>2020-09-11T22:35:50Z</time>
      </trkpt>
      <trkpt lat="42.51828" lon="2.45745">
        <ele>2656</ele>
        <time>2020-09-11T22:36:28Z</time>
      </trkpt>
      <trkpt lat="42.51851" lon="2.45651">
        <ele>2699</ele>
        <time>2020-09-11T22:36:52Z</time>
      </trkpt>
      <trkpt lat="42.51893" lon="2.457">
        <ele>2683</ele>
        <time>2020-09-11T22:37:11Z</time>
      </trkpt>
      <trkpt lat="42.51953" lon="2.4566">
        <ele>2710</ele>
        <time>2020-09-11T22:37:33Z</time>
      </trkpt>
      <trkpt lat="42.51915" lon="2.45612">
        <ele>2720</ele>
        <time>2020-09-11T22:37:50Z</time>
      </trkpt>
      <trkpt lat="42.51962" lon="2.45627">
        <ele>2709</ele>
        <time>2020-09-11T22:38:07Z</time>
      </trkpt>
      <trkpt lat="42.51953" lon="2.45593">
        <ele>2713</ele>
        <time>2020-09-11T22:38:15Z</time>
      </trkpt>
      <trkpt lat="42.52024" lon="2.45623">
        <ele>2687</ele>
        <time>2020-09-11T22:38:40Z</time>
      </trkpt>
      <trkpt lat="42.51961" lon="2.45533">
        <ele>2685</ele>
        <time>2020-09-11T22:39:11Z</time>
      </trkpt>
      <trkpt lat="42.52122" lon="2.45606">
        <ele>2636</ele>
        <time>2020-09-11T22:40:07Z</time>
      </trkpt>
      <trkpt lat="42.52161" lon="2.45569">
        <ele>2620</ele>
        <time>2020-09-11T22:40:23Z</time>
      </trkpt>
      <trkpt lat="42.52135" lon="2.45503">
        <ele>2611</ele>
        <time>2020-09-11T22:40:42Z</time>
      </trkpt>
      <trkpt lat="42.52263" lon="2.45577">
        <ele>2586</ele>
        <time>2020-09-11T22:41:28Z</time>
      </trkpt>
      <trkpt lat="42.52377" lon="2.45521">
        <ele>2564</ele>
        <time>2020-09-11T22:42:09Z</time>
      </trkpt>
      <trkpt lat="42.52693" lon="2.45388">
        <ele>2492</ele>
        <time>2020-09-11T22:43:59Z</time>
      </trkpt>
      <trkpt lat="42.52867" lon="2.45487">
        <ele>2456</ele>
        <time>2020-09-11T22:45:02Z</time>
      </trkpt>
      <trkpt lat="42.52841" lon="2.4541">
        <ele>2461</ele>
        <time>2020-09-11T22:45:23Z</time>
      </trkpt>
      <trkpt lat="42.53044" lon="2.45371">
        <ele>2407</ele>
        <time>2020-09-11T22:46:31Z</time>
      </trkpt>
      <trkpt lat="42.53166" lon="2.45297">
        <ele>2370</ele>
        <time>2020-09-11T22:47:16Z</time>
      </trkpt>
      <trkpt lat="42.53232" lon="2.4522">
        <ele>2349</ele>
        <time>2020-09-11T22:47:45Z</time>
      </trkpt>
      <trkpt lat="42.533" lon="2.45177">
        <ele>2331</ele>
        <time>2020-09-11T22:48:10Z</time>
      </trkpt>
      <trkpt lat="42.53303" lon="2.45428">
        <ele>2306</ele>
        <time>2020-09-11T22:49:11Z</time>
      </trkpt>
      <trkpt lat="42.53382" lon="2.45355">
        <ele>2279</ele>
        <time>2020-09-11T22:49:43Z</time>
      </trkpt>
      <trkpt lat="42.53371" lon="2.45516">
        <ele>2266</ele>
        <time>2020-09-11T22:50:23Z</time>
      </trkpt>
      <trkpt lat="42.53303" lon="2.45713">
        <ele>2239</ele>
        <time>2020-09-11T22:51:17Z</time>
      </trkpt>
      <trkpt lat="42.53257" lon="2.45801">
        <ele>2219</ele>
        <time>2020-09-11T22:51:43Z</time>
      </trkpt>
      <trkpt lat="42.53207" lon="2.45818">
        <ele>2225</ele>
        <time>2020-09-11T22:52:00Z</time>
      </trkpt>
      <trkpt lat="42.53159" lon="2.45868">
        <ele>2219</ele>
        <time>2020-09-11T22:52:20Z</time>
      </trkpt>
      <trkpt lat="42.5312" lon="2.45958">
        <ele>2202</ele>
        <time>2020-09-11T22:52:46Z</time>
      </trkpt>
      <trkpt lat="42.53175" lon="2.46065">
        <ele>2180</ele>
        <time>2020-09-11T22:53:18Z</time>
      </trkpt>
      <trkpt lat="42.53292" lon="2.46132">
        <ele>2162</ele>
        <time>2020-09-11T22:54:01Z</time>
      </trkpt>
      <trkpt lat="42.53287" lon="2.46222">
        <ele>2166</ele>
        <time>2020-09-11T22:54:23Z</time>
      </trkpt>
      <trkpt lat="42.5333" lon="2.46297">
        <ele>2158</ele>
        <time>2020-09-11T22:54:46Z</time>
      </trkpt>
      <trkpt lat="42.53287" lon="2.46333">
        <ele>2160</ele>
        <time>2020-09-11T22:55:03Z</time>
      </trkpt>
      <trkpt lat="42.53273" lon="2.46398">
        <ele>2158</ele>
        <time>2020-09-11T22:55:20Z</time>
      </trkpt>
      <trkpt lat="42.53327" lon="2.46423">
        <ele>2155</ele>
        <time>2020-09-11T22:55:39Z</time>
      </trkpt>
      <trkpt lat="42.53332" lon="2.46458">
        <ele>2158</ele>
        <time>2020-09-11T22:55:47Z</time>
      </trkpt>
      <trkpt lat="42.53398" lon="2.46494">
        <ele>2159</ele>
        <time>2020-09-11T22:56:11Z</time>
      </trkpt>
      <trkpt lat="42.53346" lon="2.46578">
        <ele>2160</ele>
        <time>2020-09-11T22:56:38Z</time>
      </trkpt>
      <trkpt lat="42.53232" lon="2.46752">
        <ele>2177</ele>
        <time>2020-09-11T22:57:35Z</time>
      </trkpt>
      <trkpt lat="42.53191" lon="2.4687">
        <ele>2182</ele>
        <time>2020-09-11T22:58:07Z</time>
      </trkpt>
      <trkpt lat="42.53155" lon="2.46962">
        <ele>2176</ele>
        <time>2020-09-11T22:58:33Z</time>
      </trkpt>
      <trkpt lat="42.53074" lon="2.46992">
        <ele>2197</ele>
        <time>2020-09-11T22:59:01Z</time>
      </trkpt>
      <trkpt lat="42.5308" lon="2.47056">
        <ele>2168</ele>
        <time>2020-09-11T22:59:17Z</time>
      </trkpt>
      <trkpt lat="42.53019" lon="2.47061">
        <ele>2194</ele>
        <time>2020-09-11T22:59:37Z</time>
      </trkpt>
      <trkpt lat="42.52998" lon="2.47121">
        <ele>2185</ele>
        <time>2020-09-11T22:59:54Z</time>
      </trkpt>
      <trkpt lat="42.52911" lon="2.47316">
        <ele>2188</ele>
        <time>2020-09-11T23:00:50Z</time>
      </trkpt>
      <trkpt lat="42.52898" lon="2.47363">
        <ele>2191</ele>
        <time>2020-09-11T23:01:02Z</time>
      </trkpt>
      <trkpt lat="42.52924" lon="2.47406">
        <ele>2169</ele>
        <time>2020-09-11T23:01:16Z</time>
      </trkpt>
      <trkpt lat="42.52916" lon="2.47475">
        <ele>2181</ele>
        <time>2020-09-11T23:01:33Z</time>
      </trkpt>
      <trkpt lat="42.5296" lon="2.47529">
        <ele>2172</ele>
        <time>2020-09-11T23:01:53Z</time>
      </trkpt>
      <trkpt lat="42.53022" lon="2.47548">
        <ele>2147</ele>
        <time>2020-09-11T23:02:14Z</time>
      </trkpt>
      <trkpt lat="42.53071" lon="2.4761">
        <ele>2145</ele>
        <time>2020-09-11T23:02:36Z</time>
      </trkpt>
      <trkpt lat="42.53061" lon="2.47711">
        <ele>2175</ele>
        <time>2020-09-11T23:03:01Z</time>
      </trkpt>
      <trkpt lat="42.53071" lon="2.47797">
        <ele>2168</ele>
        <time>2020-09-11T23:03:23Z</time>
      </trkpt>
      <trkpt lat="42.5305" lon="2.47885">
        <ele>2162</ele>
        <time>2020-09-11T23:03:45Z</time>
      </trkpt>
      <trkpt lat="42.53004" lon="2.47936">
        <ele>2165</ele>
        <time>2020-09-11T23:04:05Z</time>
      </trkpt>
      <trkpt lat="42.52996" lon="2.48005">
        <ele>2147</ele>
        <time>2020-09-11T23:04:22Z</time>
      </trkpt>
      <trkpt lat="42.52954" lon="2.48082">
        <ele>2145</ele>
        <time>2020-09-11T23:04:46Z</time>
      </trkpt>
      <trkpt lat="42.5296" lon="2.48181">
        <ele>2116</ele>
        <time>2020-09-11T23:05:10Z</time>
      </trkpt>
      <trkpt lat="42.52924" lon="2.48249">
        <ele>2111</ele>
        <time>2020-09-11T23:05:31Z</time>
      </trkpt>
      <trkpt lat="42.5297" lon="2.48271">
        <ele>2092</ele>
        <time>2020-09-11T23:05:47Z</time>
      </trkpt>
      <trkpt lat="42.52941" lon="2.48335">
        <ele>2085</ele>
        <time>2020-09-11T23:06:06Z</time>
      </trkpt>
      <trkpt lat="42.52865" lon="2.48361">
        <ele>2077</ele>
        <time>2020-09-11T23:06:32Z</time>
      </trkpt>
      <trkpt lat="42.52751" lon="2.48314">
        <ele>2084</ele>
        <time>2020-09-11T23:07:12Z</time>
      </trkpt>
      <trkpt lat="42.52685" lon="2.48385">
        <ele>2069</ele>
        <time>2020-09-11T23:07:40Z</time>
      </trkpt>
      <trkpt lat="42.52647" lon="2.48389">
        <ele>2073</ele>
        <time>2020-09-11T23:07:52Z</time>
      </trkpt>
      <trkpt lat="42.52596" lon="2.48451">
        <ele>2059</ele>
        <time>2020-09-11T23:08:15Z</time>
      </trkpt>
      <trkpt lat="42.52508" lon="2.4843">
        <ele>2049</ele>
        <time>2020-09-11T23:08:45Z</time>
      </trkpt>
      <trkpt lat="42.52579" lon="2.48505">
        <ele>2044</ele>
        <time>2020-09-11T23:09:15Z</time>
      </trkpt>
      <trkpt lat="42.52655" lon="2.48492">
        <ele>2045</ele>
        <time>2020-09-11T23:09:41Z</time>
      </trkpt>
      <trkpt lat="42.52644" lon="2.4855">
        <ele>2031</ele>
        <time>2020-09-11T23:09:55Z</time>
      </trkpt>
      <trkpt lat="42.52705" lon="2.48505">
        <ele>2034</ele>
        <time>2020-09-11T23:10:19Z</time>
      </trkpt>
      <trkpt lat="42.52664" lon="2.48619">
        <ele>2006</ele>
        <time>2020-09-11T23:10:50Z</time>
      </trkpt>
      <trkpt lat="42.52693" lon="2.48679">
        <ele>1977</ele>
        <time>2020-09-11T23:11:07Z</time>
      </trkpt>
      <trkpt lat="42.5274" lon="2.48687">
        <ele>1975</ele>
        <time>2020-09-11T23:11:23Z</time>
      </trkpt>
      <trkpt lat="42.52701" lon="2.48709">
        <ele>1968</ele>
        <time>2020-09-11T23:11:37Z</time>
      </trkpt>
      <trkpt lat="42.5275" lon="2.48756">
        <ele>1952</ele>
        <time>2020-09-11T23:11:57Z</time>
      </trkpt>
      <trkpt lat="42.52705" lon="2.48792">
        <ele>1938</ele>
        <time>2020-09-11T23:12:15Z</time>
      </trkpt>
      <trkpt lat="42.52756" lon="2.48831">
        <ele>1930</ele>
        <time>2020-09-11T23:12:34Z</time>
      </trkpt>
      <trkpt lat="42.52704" lon="2.48855">
        <ele>1913</ele>
        <time>2020-09-11T23:12:53Z</time>
      </trkpt>
      <trkpt lat="42.52769" lon="2.4894">
        <ele>1887</ele>
        <time>2020-09-11T23:13:23Z</time>
      </trkpt>
      <trkpt lat="42.5283" lon="2.49039">
        <ele>1861</ele>
        <time>2020-09-11T23:13:54Z</time>
      </trkpt>
      <trkpt lat="42.5287" lon="2.4923">
        <ele>1828</ele>
        <time>2020-09-11T23:14:43Z</time>
      </trkpt>
      <trkpt lat="42.52938" lon="2.49479">
        <ele>1773</ele>
        <time>2020-09-11T23:15:49Z</time>
      </trkpt>
      <trkpt lat="42.52903" lon="2.4952">
        <ele>1757</ele>
        <time>2020-09-11T23:16:04Z</time>
      </trkpt>
      <trkpt lat="42.52958" lon="2.49543">
        <ele>1751</ele>
        <time>2020-09-11T23:16:23Z</time>
      </trkpt>
      <trkpt lat="42.5293" lon="2.4961">
        <ele>1729</ele>
        <time>2020-09-11T23:16:42Z</time>
      </trkpt>
      <trkpt lat="42.52879" lon="2.49561">
        <ele>1732</ele>
        <time>2020-09-11T23:17:03Z</time>
      </trkpt>
      <trkpt lat="42.52834" lon="2.49543">
        <ele>1722</ele>
        <time>2020-09-11T23:17:19Z</time>
      </trkpt>
      <trkpt lat="42.52799" lon="2.49421">
        <ele>1744</ele>
        <time>2020-09-11T23:17:51Z</time>
      </trkpt>
      <trkpt lat="42.52745" lon="2.49363">
        <ele>1724</ele>
        <time>2020-09-11T23:18:14Z</time>
      </trkpt>
      <trkpt lat="42.52699" lon="2.49301">
        <ele>1720</ele>
        <time>2020-09-11T23:18:35Z</time>
      </trkpt>
      <trkpt lat="42.52663" lon="2.49232">
        <ele>1729</ele>
        <time>2020-09-11T23:18:56Z</time>
      </trkpt>
      <trkpt lat="42.5253" lon="2.49206">
        <ele>1707</ele>
        <time>2020-09-11T23:19:41Z</time>
      </trkpt>
      <trkpt lat="42.52462" lon="2.49245">
        <ele>1685</ele>
        <time>2020-09-11T23:20:06Z</time>
      </trkpt>
      <trkpt lat="42.52418" lon="2.49219">
        <ele>1691</ele>
        <time>2020-09-11T23:20:22Z</time>
      </trkpt>
      <trkpt lat="42.52388" lon="2.49155">
        <ele>1710</ele>
        <time>2020-09-11T23:20:40Z</time>
      </trkpt>
      <trkpt lat="42.52256" lon="2.49144">
        <ele>1666</ele>
        <time>2020-09-11T23:21:24Z</time>
      </trkpt>
      <trkpt lat="42.52256" lon="2.49067">
        <ele>1690</ele>
        <time>2020-09-11T23:21:43Z</time>
      </trkpt>
      <trkpt lat="42.52215" lon="2.4902">
        <ele>1679</ele>
        <time>2020-09-11T23:22:01Z</time>
      </trkpt>
      <trkpt lat="42.52187" lon="2.48951">
        <ele>1684</ele>
        <time>2020-09-11T23:22:21Z</time>
      </trkpt>
      <trkpt lat="42.52141" lon="2.48891">
        <ele>1679</ele>
        <time>2020-09-11T23:22:42Z</time>
      </trkpt>
      <trkpt lat="42.52098" lon="2.48878">
        <ele>1662</ele>
        <time>2020-09-11T23:22:57Z</time>
      </trkpt>
      <trkpt lat="42.52101" lon="2.48799">
        <ele>1699</ele>
        <time>2020-09-11T23:23:16Z</time>
      </trkpt>
      <trkpt lat="42.5203" lon="2.4882">
        <ele>1663</ele>
        <time>2020-09-11T23:23:40Z</time>
      </trkpt>
      <trkpt lat="42.51987" lon="2.48801">
        <ele>1657</ele>
        <time>2020-09-11T23:23:55Z</time>
      </trkpt>
      <trkpt lat="42.51962" lon="2.48741">
        <ele>1674</ele>
        <time>2020-09-11T23:24:12Z</time>
      </trkpt>
      <trkpt lat="42.51938" lon="2.4867">
        <ele>1700</ele>
        <time>2020-09-11T23:24:32Z</time>
      </trkpt>
      <trkpt lat="42.51921" lon="2.48726">
        <ele>1668</ele>
        <time>2020-09-11T23:24:46Z</time>
      </trkpt>
      <trkpt lat="42.51875" lon="2.48689">
        <ele>1689</ele>
        <time>2020-09-11T23:25:04Z</time>
      </trkpt>
      <trkpt lat="42.51853" lon="2.48777">
        <ele>1670</ele>
        <time>2020-09-11T23:25:27Z</time>
      </trkpt>
      <trkpt lat="42.51783" lon="2.48807">
        <ele>1696</ele>
        <time>2020-09-11T23:25:52Z</time>
      </trkpt>
      <trkpt lat="42.51832" lon="2.48859">
        <ele>1668</ele>
        <time>2020-09-11T23:26:12Z</time>
      </trkpt>
      <trkpt lat="42.51834" lon="2.48979">
        <ele>1669</ele>
        <time>2020-09-11T23:26:42Z</time>
      </trkpt>
      <trkpt lat="42.5181" lon="2.48988">
        <ele>1682</ele>
        <time>2020-09-11T23:26:50Z</time>
      </trkpt>
      <trkpt lat="42.51832" lon="2.49252">
        <ele>1663</ele>
        <time>2020-09-11T23:27:55Z</time>
      </trkpt>
      <trkpt lat="42.51712" lon="2.49219">
        <ele>1678</ele>
        <time>2020-09-11T23:28:36Z</time>
      </trkpt>
      <trkpt lat="42.51654" lon="2.49303">
        <ele>1669</ele>
        <time>2020-09-11T23:29:05Z</time>
      </trkpt>
      <trkpt lat="42.51673" lon="2.49344">
        <ele>1659</ele>
        <time>2020-09-11T23:29:17Z</time>
      </trkpt>
      <trkpt lat="42.51617" lon="2.49342">
        <ele>1672</ele>
        <time>2020-09-11T23:29:35Z</time>
      </trkpt>
      <trkpt lat="42.51633" lon="2.49406">
        <ele>1657</ele>
        <time>2020-09-11T23:29:52Z</time>
      </trkpt>
      <trkpt lat="42.51594" lon="2.49473">
        <ele>1664</ele>
        <time>2020-09-11T23:30:13Z</time>
      </trkpt>
      <trkpt lat="42.51592" lon="2.49533">
        <ele>1669</ele>
        <time>2020-09-11T23:30:28Z</time>
      </trkpt>
      <trkpt lat="42.51657" lon="2.49704">
        <ele>1675</ele>
        <time>2020-09-11T23:31:15Z</time>
      </trkpt>
      <trkpt lat="42.517" lon="2.49803">
        <ele>1665</ele>
        <time>2020-09-11T23:31:43Z</time>
      </trkpt>
      <trkpt lat="42.51749" lon="2.49988">
        <ele>1669</ele>
        <time>2020-09-11T23:32:32Z</time>
      </trkpt>
      <trkpt lat="42.51739" lon="2.50037">
        <ele>1676</ele>
        <time>2020-09-11T23:32:44Z</time>
      </trkpt>
      <trkpt lat="42.51704" lon="2.50091">
        <ele>1692</ele>
        <time>2020-09-11T23:33:02Z</time>
      </trkpt>
      <trkpt lat="42.51779" lon="2.5017">
        <ele>1667</ele>
        <time>2020-09-11T23:33:33Z</time>
      </trkpt>
      <trkpt lat="42.51855" lon="2.50335">
        <ele>1654</ele>
        <time>2020-09-11T23:34:21Z</time>
      </trkpt>
      <trkpt lat="42.51896" lon="2.50524">
        <ele>1663</ele>
        <time>2020-09-11T23:35:10Z</time>
      </trkpt>
      <trkpt lat="42.51938" lon="2.5064">
        <ele>1658</ele>
        <time>2020-09-11T23:35:41Z</time>
      </trkpt>
      <trkpt lat="42.51901" lon="2.50891">
        <ele>1655</ele>
        <time>2020-09-11T23:36:44Z</time>
      </trkpt>
      <trkpt lat="42.51836" lon="2.50891">
        <ele>1673</ele>
        <time>2020-09-11T23:37:06Z</time>
      </trkpt>
      <trkpt lat="42.51799" lon="2.50927">
        <ele>1666</ele>
        <time>2020-09-11T23:37:21Z</time>
      </trkpt>
      <trkpt lat="42.51703" lon="2.50945">
        <ele>1694</ele>
        <time>2020-09-11T23:37:54Z</time>
      </trkpt>
      <trkpt lat="42.51747" lon="2.51013">
        <ele>1656</ele>
        <time>2020-09-11T23:38:16Z</time>
      </trkpt>
      <trkpt lat="42.51739" lon="2.51123">
        <ele>1660</ele>
        <time>2020-09-11T23:38:43Z</time>
      </trkpt>
      <trkpt lat="42.51704" lon="2.51189">
        <ele>1672</ele>
        <time>2020-09-11T23:39:03Z</time>
      </trkpt>
      <trkpt lat="42.51692" lon="2.51254">
        <ele>1665</ele>
        <time>2020-09-11T23:39:20Z</time>
      </trkpt>
      <trkpt lat="42.51655" lon="2.51303">
        <ele>1664</ele>
        <time>2020-09-11T23:39:37Z</time>
      </trkpt>
      <trkpt lat="42.51583" lon="2.51294">
        <ele>1678</ele>
        <time>2020-09-11T23:40:01Z</time>
      </trkpt>
      <trkpt lat="42.51524" lon="2.51352">
        <ele>1666</ele>
        <time>2020-09-11T23:40:25Z</time>
      </trkpt>
      <trkpt lat="42.51494" lon="2.51352">
        <ele>1675</ele>
        <time>2020-09-11T23:40:35Z</time>
      </trkpt>
      <trkpt lat="42.5145" lon="2.51395">
        <ele>1669</ele>
        <time>2020-09-11T23:40:53Z</time>
      </trkpt>
      <trkpt lat="42.51375" lon="2.51462">
        <ele>1693</ele>
        <time>2020-09-11T23:41:23Z</time>
      </trkpt>
      <trkpt lat="42.51413" lon="2.51513">
        <ele>1671</ele>
        <time>2020-09-11T23:41:41Z</time>
      </trkpt>
      <trkpt lat="42.51462" lon="2.51513">
        <ele>1647</ele>
        <time>2020-09-11T23:41:57Z</time>
      </trkpt>
      <trkpt lat="42.5145" lon="2.51575">
        <ele>1662</ele>
        <time>2020-09-11T23:42:13Z</time>
      </trkpt>
      <trkpt lat="42.51491" lon="2.5159">
        <ele>1642</ele>
        <time>2020-09-11T23:42:27Z</time>
      </trkpt>
      <trkpt lat="42.5147" lon="2.51629">
        <ele>1663</ele>
        <time>2020-09-11T23:42:39Z</time>
      </trkpt>
      <trkpt lat="42.51568" lon="2.51749">
        <ele>1634</ele>
        <time>2020-09-11T23:43:23Z</time>
      </trkpt>
      <trkpt lat="42.51551" lon="2.51891">
        <ele>1647</ele>
        <time>2020-09-11T23:43:59Z</time>
      </trkpt>
      <trkpt lat="42.51606" lon="2.51957">
        <ele>1620</ele>
        <time>2020-09-11T23:44:23Z</time>
      </trkpt>
      <trkpt lat="42.51695" lon="2.52037">
        <ele>1589</ele>
        <time>2020-09-11T23:44:59Z</time>
      </trkpt>
      <trkpt lat="42.51711" lon="2.52204">
        <ele>1578</ele>
        <time>2020-09-11T23:45:40Z</time>
      </trkpt>
      <trkpt lat="42.51703" lon="2.52487">
        <ele>1538</ele>
        <time>2020-09-11T23:46:50Z</time>
      </trkpt>
      <trkpt lat="42.51744" lon="2.52399">
        <ele>1533</ele>
        <time>2020-09-11T23:47:15Z</time>
      </trkpt>
      <trkpt lat="42.51788" lon="2.52236">
        <ele>1527</ele>
        <time>2020-09-11T23:47:58Z</time>
      </trkpt>
      <trkpt lat="42.51795" lon="2.52434">
        <ele>1496</ele>
        <time>2020-09-11T23:48:47Z</time>
      </trkpt>
      <trkpt lat="42.51785" lon="2.52492">
        <ele>1493</ele>
        <time>2020-09-11T23:49:01Z</time>
      </trkpt>
      <trkpt lat="42.51787" lon="2.5261">
        <ele>1480</ele>
        <time>2020-09-11T23:49:31Z</time>
      </trkpt>
      <trkpt lat="42.5173" lon="2.52631">
        <ele>1484</ele>
        <time>2020-09-11T23:49:50Z</time>
      </trkpt>
      <trkpt lat="42.51668" lon="2.52642">
        <ele>1491</ele>
        <time>2020-09-11T23:50:11Z</time>
      </trkpt>
      <trkpt lat="42.51613" lon="2.52657">
        <ele>1500</ele>
        <time>2020-09-11T23:50:30Z</time>
      </trkpt>
      <trkpt lat="42.51483" lon="2.52648">
        <ele>1535</ele>
        <time>2020-09-11T23:51:13Z</time>
      </trkpt>
      <trkpt lat="42.51412" lon="2.52573">
        <ele>1563</ele>
        <time>2020-09-11T23:51:43Z</time>
      </trkpt>
      <trkpt lat="42.51361" lon="2.52565">
        <ele>1554</ele>
        <time>2020-09-11T23:52:00Z</time>
      </trkpt>
      <trkpt lat="42.51347" lon="2.52528">
        <ele>1568</ele>
        <time>2020-09-11T23:52:11Z</time>
      </trkpt>
      <trkpt lat="42.5126" lon="2.52556">
        <ele>1551</ele>
        <time>2020-09-11T23:52:40Z</time>
      </trkpt>
      <trkpt lat="42.51262" lon="2.52494">
        <ele>1581</ele>
        <time>2020-09-11T23:52:56Z</time>
      </trkpt>
      <trkpt lat="42.51206" lon="2.52492">
        <ele>1582</ele>
        <time>2020-09-11T23:53:14Z</time>
      </trkpt>
      <trkpt lat="42.51201" lon="2.52464">
        <ele>1596</ele>
        <time>2020-09-11T23:53:21Z</time>
      </trkpt>
      <trkpt lat="42.51146" lon="2.52449">
        <ele>1604</ele>
        <time>2020-09-11T23:53:40Z</time>
      </trkpt>
      <trkpt lat="42.51116" lon="2.52378">
        <ele>1634</ele>
        <time>2020-09-11T23:54:00Z</time>
      </trkpt>
      <trkpt lat="42.51057" lon="2.52384">
        <ele>1634</ele>
        <time>2020-09-11T23:54:20Z</time>
      </trkpt>
      <trkpt lat="42.51086" lon="2.52474">
        <ele>1602</ele>
        <time>2020-09-11T23:54:44Z</time>
      </trkpt>
      <trkpt lat="42.51065" lon="2.52425">
        <ele>1616</ele>
        <time>2020-09-11T23:54:58Z</time>
      </trkpt>
      <trkpt lat="42.51056" lon="2.52487">
        <ele>1621</ele>
        <time>2020-09-11T23:55:14Z</time>
      </trkpt>
      <trkpt lat="42.51032" lon="2.52417">
        <ele>1631</ele>
        <time>2020-09-11T23:55:33Z</time>
      </trkpt>
      <trkpt lat="42.51023" lon="2.52526">
        <ele>1648</ele>
        <time>2020-09-11T23:56:00Z</time>
      </trkpt>
      <trkpt lat="42.5102" lon="2.52766">
        <ele>1651</ele>
        <time>2020-09-11T23:56:59Z</time>
      </trkpt>
      <trkpt lat="42.50997" lon="2.52756">
        <ele>1669</ele>
        <time>2020-09-11T23:57:07Z</time>
      </trkpt>
      <trkpt lat="42.50955" lon="2.52837">
        <ele>1671</ele>
        <time>2020-09-11T23:57:31Z</time>
      </trkpt>
      <trkpt lat="42.508" lon="2.52906">
        <ele>1706</ele>
        <time>2020-09-11T23:58:26Z</time>
      </trkpt>
      <trkpt lat="42.50717" lon="2.52951">
        <ele>1727</ele>
        <time>2020-09-11T23:58:55Z</time>
      </trkpt>
      <trkpt lat="42.5067" lon="2.52981">
        <ele>1739</ele>
        <time>2020-09-11T23:59:13Z</time>
      </trkpt>
      <trkpt lat="42.50621" lon="2.53097">
        <ele>1730</ele>
        <time>2020-09-11T23:59:46Z</time>
      </trkpt>
      <trkpt lat="42.50621" lon="2.53191">
        <ele>1731</ele>
        <time>2020-09-12T00:00:09Z</time>
      </trkpt>
      <trkpt lat="42.50711" lon="2.53318">
        <ele>1714</ele>
        <time>2020-09-12T00:00:52Z</time>
      </trkpt>
      <trkpt lat="42.50721" lon="2.53404">
        <ele>1728</ele>
        <time>2020-09-12T00:01:13Z</time>
      </trkpt>
      <trkpt lat="42.50766" lon="2.53502">
        <ele>1724</ele>
        <time>2020-09-12T00:01:42Z</time>
      </trkpt>
      <trkpt lat="42.5077" lon="2.53588">
        <ele>1729</ele>
        <time>2020-09-12T00:02:03Z</time>
      </trkpt>
      <trkpt lat="42.50653" lon="2.53962">
        <ele>1723</ele>
        <time>2020-09-12T00:03:43Z</time>
      </trkpt>
      <trkpt lat="42.50725" lon="2.54247">
        <ele>1774</ele>
        <time>2020-09-12T00:04:57Z</time>
      </trkpt>
      <trkpt lat="42.508" lon="2.54358">
        <ele>1767</ele>
        <time>2020-09-12T00:05:34Z</time>
      </trkpt>
      <trkpt lat="42.50948" lon="2.54444">
        <ele>1738</ele>
        <time>2020-09-12T00:06:28Z</time>
      </trkpt>
      <trkpt lat="42.51176" lon="2.54588">
        <ele>1728</ele>
        <time>2020-09-12T00:07:52Z</time>
      </trkpt>
      <trkpt lat="42.51262" lon="2.54678">
        <ele>1721</ele>
        <time>2020-09-12T00:08:28Z</time>
      </trkpt>
      <trkpt lat="42.5132" lon="2.54837">
        <ele>1713</ele>
        <time>2020-09-12T00:09:12Z</time>
      </trkpt>
      <trkpt lat="42.51366" lon="2.55105">
        <ele>1735</ele>
        <time>2020-09-12T00:10:19Z</time>
      </trkpt>
      <trkpt lat="42.51388" lon="2.55313">
        <ele>1761</ele>
        <time>2020-09-12T00:11:11Z</time>
      </trkpt>
      <trkpt lat="42.51315" lon="2.55453">
        <ele>1728</ele>
        <time>2020-09-12T00:11:53Z</time>
      </trkpt>
      <trkpt lat="42.51263" lon="2.55569">
        <ele>1698</ele>
        <time>2020-09-12T00:12:26Z</time>
      </trkpt>
      <trkpt lat="42.51236" lon="2.55672">
        <ele>1674</ele>
        <time>2020-09-12T00:12:53Z</time>
      </trkpt>
      <trkpt lat="42.51241" lon="2.55798">
        <ele>1650</ele>
        <time>2020-09-12T00:13:24Z</time>
      </trkpt>
      <trkpt lat="42.5122" lon="2.55856">
        <ele>1644</ele>
        <time>2020-09-12T00:13:40Z</time>
      </trkpt>
      <trkpt lat="42.51227" lon="2.56172">
        <ele>1647</ele>
        <time>2020-09-12T00:14:58Z</time>
      </trkpt>
      <trkpt lat="42.51266" lon="2.56356">
        <ele>1652</ele>
        <time>2020-09-12T00:15:45Z</time>
      </trkpt>
      <trkpt lat="42.51309" lon="2.56601">
        <ele>1616</ele>
        <time>2020-09-12T00:16:47Z</time>
      </trkpt>
      <trkpt lat="42.5133" lon="2.56884">
        <ele>1587</ele>
        <time>2020-09-12T00:17:57Z</time>
      </trkpt>
      <trkpt lat="42.51239" lon="2.5709">
        <ele>1549</ele>
        <time>2020-09-12T00:18:56Z</time>
      </trkpt>
      <trkpt lat="42.511" lon="2.57234">
        <ele>1502</ele>
        <time>2020-09-12T00:19:54Z</time>
      </trkpt>
      <trkpt lat="42.50985" lon="2.57397">
        <ele>1454</ele>
        <time>2020-09-12T00:20:50Z</time>
      </trkpt>
      <trkpt lat="42.50895" lon="2.57575">
        <ele>1420</ele>
        <time>2020-09-12T00:21:43Z</time>
      </trkpt>
      <trkpt lat="42.50863" lon="2.57601">
        <ele>1415</ele>
        <time>2020-09-12T00:21:55Z</time>
      </trkpt>
      <trkpt lat="42.50896" lon="2.57702">
        <ele>1401</ele>
        <time>2020-09-12T00:22:23Z</time>
      </trkpt>
      <trkpt lat="42.50877" lon="2.57807">
        <ele>1386</ele>
        <time>2020-09-12T00:22:49Z</time>
      </trkpt>
      <trkpt lat="42.50878" lon="2.57924">
        <ele>1377</ele>
        <time>2020-09-12T00:23:18Z</time>
      </trkpt>
      <trkpt lat="42.5091" lon="2.5819">
        <ele>1347</ele>
        <time>2020-09-12T00:24:24Z</time>
      </trkpt>
      <trkpt lat="42.50944" lon="2.58294">
        <ele>1340</ele>
        <time>2020-09-12T00:24:52Z</time>
      </trkpt>
      <trkpt lat="42.51007" lon="2.58397">
        <ele>1321</ele>
        <time>2020-09-12T00:25:25Z</time>
      </trkpt>
      <trkpt lat="42.51064" lon="2.58479">
        <ele>1292</ele>
        <time>2020-09-12T00:25:53Z</time>
      </trkpt>
      <trkpt lat="42.51103" lon="2.5854">
        <ele>1284</ele>
        <time>2020-09-12T00:26:13Z</time>
      </trkpt>
      <trkpt lat="42.51213" lon="2.58637">
        <ele>1266</ele>
        <time>2020-09-12T00:26:56Z</time>
      </trkpt>
      <trkpt lat="42.51262" lon="2.58669">
        <ele>1255</ele>
        <time>2020-09-12T00:27:15Z</time>
      </trkpt>
      <trkpt lat="42.51306" lon="2.5873">
        <ele>1239</ele>
        <time>2020-09-12T00:27:36Z</time>
      </trkpt>
      <trkpt lat="42.51342" lon="2.58794">
        <ele>1229</ele>
        <time>2020-09-12T00:27:55Z</time>
      </trkpt>
      <trkpt lat="42.51415" lon="2.58882">
        <ele>1200</ele>
        <time>2020-09-12T00:28:28Z</time>
      </trkpt>
      <trkpt lat="42.51472" lon="2.58892">
        <ele>1180</ele>
        <time>2020-09-12T00:28:47Z</time>
      </trkpt>
      <trkpt lat="42.51501" lon="2.58951">
        <ele>1166</ele>
        <time>2020-09-12T00:29:05Z</time>
      </trkpt>
      <trkpt lat="42.51558" lon="2.5895">
        <ele>1147</ele>
        <time>2020-09-12T00:29:24Z</time>
      </trkpt>
      <trkpt lat="42.51613" lon="2.59028">
        <ele>1117</ele>
        <time>2020-09-12T00:29:50Z</time>
      </trkpt>
      <trkpt lat="42.51726" lon="2.59107">
        <ele>1071</ele>
        <time>2020-09-12T00:30:32Z</time>
      </trkpt>
      <trkpt lat="42.51818" lon="2.59204">
        <ele>1041</ele>
        <time>2020-09-12T00:31:11Z</time>
      </trkpt>
      <trkpt lat="42.51899" lon="2.59189">
        <ele>1022</ele>
        <time>2020-09-12T00:31:39Z</time>
      </trkpt>
      <trkpt lat="42.51991" lon="2.59262">
        <ele>1001</ele>
        <time>2020-09-12T00:32:14Z</time>
      </trkpt>
      <trkpt lat="42.52029" lon="2.59352">
        <ele>991</ele>
        <time>2020-09-12T00:32:40Z</time>
      </trkpt>
      <trkpt lat="42.5207" lon="2.59416">
        <ele>987</ele>
        <time>2020-09-12T00:33:01Z</time>
      </trkpt>
      <trkpt lat="42.52128" lon="2.59392">
        <ele>974</ele>
        <time>2020-09-12T00:33:21Z</time>
      </trkpt>
      <trkpt lat="42.52356" lon="2.59315">
        <ele>940</ele>
        <time>2020-09-12T00:34:39Z</time>
      </trkpt>
      <trkpt lat="42.52394" lon="2.59392">
        <ele>942</ele>
        <time>2020-09-12T00:35:02Z</time>
      </trkpt>
      <trkpt lat="42.52394" lon="2.59446">
        <ele>944</ele>
        <time>2020-09-12T00:35:15Z</time>
      </trkpt>
      <trkpt lat="42.5249" lon="2.59573">
        <ele>914</ele>
        <time>2020-09-12T00:36:00Z</time>
      </trkpt>
      <trkpt lat="42.52554" lon="2.59742">
        <ele>906</ele>
        <time>2020-09-12T00:36:47Z</time>
      </trkpt>
      <trkpt lat="42.52618" lon="2.59785">
        <ele>893</ele>
        <time>2020-09-12T00:37:11Z</time>
      </trkpt>
      <trkpt lat="42.52789" lon="2.59779">
        <ele>891</ele>
        <time>2020-09-12T00:38:08Z</time>
      </trkpt>
      <trkpt lat="42.5293" lon="2.59834">
        <ele>888</ele>
        <time>2020-09-12T00:38:57Z</time>
      </trkpt>
      <trkpt lat="42.53085" lon="2.60034">
        <ele>884</ele>
        <time>2020-09-12T00:40:08Z</time>
      </trkpt>
      <trkpt lat="42.53183" lon="2.60206">
        <ele>870</ele>
        <time>2020-09-12T00:41:01Z</time>
      </trkpt>
      <trkpt lat="42.53265" lon="2.60279">
        <ele>858</ele>
        <time>2020-09-12T00:41:34Z</time>
      </trkpt>
      <trkpt lat="42.53302" lon="2.60349">
        <ele>852</ele>
        <time>2020-09-12T00:41:55Z</time>
      </trkpt>
      <trkpt lat="42.53459" lon="2.60615">
        <ele>845</ele>
        <time>2020-09-12T00:43:19Z</time>
      </trkpt>
      <trkpt lat="42.53521" lon="2.6078">
        <ele>839</ele>
        <time>2020-09-12T00:44:05Z</time>
      </trkpt>
      <trkpt lat="42.53533" lon="2.61105">
        <ele>816</ele>
        <time>2020-09-12T00:45:25Z</time>
      </trkpt>
      <trkpt lat="42.53709" lon="2.61221">
        <ele>819</ele>
        <time>2020-09-12T00:46:30Z</time>
      </trkpt>
      <trkpt lat="42.53619" lon="2.61816">
        <ele>757</ele>
        <time>2020-09-12T00:48:59Z</time>
      </trkpt>
      <trkpt lat="42.5367" lon="2.61935">
        <ele>746</ele>
        <time>2020-09-12T00:49:33Z</time>
      </trkpt>
      <trkpt lat="42.53763" lon="2.62101">
        <ele>728</ele>
        <time>2020-09-12T00:50:24Z</time>
      </trkpt>
      <trkpt lat="42.53771" lon="2.61639">
        <ele>783</ele>
        <time>2020-09-12T00:52:18Z</time>
      </trkpt>
      <trkpt lat="42.54014" lon="2.6135">
        <ele>819</ele>
        <time>2020-09-12T00:54:06Z</time>
      </trkpt>
      <trkpt lat="42.54097" lon="2.61038">
        <ele>854</ele>
        <time>2020-09-12T00:55:27Z</time>
      </trkpt>
      <trkpt lat="42.54127" lon="2.60877">
        <ele>838</ele>
        <time>2020-09-12T00:56:08Z</time>
      </trkpt>
      <trkpt lat="42.54174" lon="2.60712">
        <ele>815</ele>
        <time>2020-09-12T00:56:51Z</time>
      </trkpt>
      <trkpt lat="42.54162" lon="2.60592">
        <ele>799</ele>
        <time>2020-09-12T00:57:21Z</time>
      </trkpt>
      <trkpt lat="42.54182" lon="2.60504">
        <ele>786</ele>
        <time>2020-09-12T00:57:44Z</time>
      </trkpt>
      <trkpt lat="42.54179" lon="2.60446">
        <ele>776</ele>
        <time>2020-09-12T00:57:58Z</time>
      </trkpt>
      <trkpt lat="42.54233" lon="2.60369">
        <ele>758</ele>
        <time>2020-09-12T00:58:24Z</time>
      </trkpt>
      <trkpt lat="42.54187" lon="2.60311">
        <ele>748</ele>
        <time>2020-09-12T00:58:45Z</time>
      </trkpt>
      <trkpt lat="42.5414" lon="2.60322">
        <ele>756</ele>
        <time>2020-09-12T00:59:01Z</time>
      </trkpt>
      <trkpt lat="42.54149" lon="2.60261">
        <ele>741</ele>
        <time>2020-09-12T00:59:16Z</time>
      </trkpt>
      <trkpt lat="42.54125" lon="2.60208">
        <ele>736</ele>
        <time>2020-09-12T00:59:32Z</time>
      </trkpt>
      <trkpt lat="42.54146" lon="2.6018">
        <ele>726</ele>
        <time>2020-09-12T00:59:42Z</time>
      </trkpt>
      <trkpt lat="42.54155" lon="2.60036">
        <ele>699</ele>
        <time>2020-09-12T01:00:17Z</time>
      </trkpt>
      <trkpt lat="42.54068" lon="2.59993">
        <ele>703</ele>
        <time>2020-09-12T01:00:48Z</time>
      </trkpt>
      <trkpt lat="42.54016" lon="2.60038">
        <ele>719</ele>
        <time>2020-09-12T01:01:09Z</time>
      </trkpt>
      <trkpt lat="42.53991" lon="2.59972">
        <ele>718</ele>
        <time>2020-09-12T01:01:27Z</time>
      </trkpt>
      <trkpt lat="42.5407" lon="2.59841">
        <ele>698</ele>
        <time>2020-09-12T01:02:08Z</time>
      </trkpt>
      <trkpt lat="42.54081" lon="2.59774">
        <ele>693</ele>
        <time>2020-09-12T01:02:25Z</time>
      </trkpt>
      <trkpt lat="42.54068" lon="2.59652">
        <ele>692</ele>
        <time>2020-09-12T01:02:56Z</time>
      </trkpt>
      <trkpt lat="42.54034" lon="2.59594">
        <ele>699</ele>
        <time>2020-09-12T01:03:14Z</time>
      </trkpt>
      <trkpt lat="42.54057" lon="2.59453">
        <ele>684</ele>
        <time>2020-09-12T01:03:49Z</time>
      </trkpt>
      <trkpt lat="42.54002" lon="2.59377">
        <ele>682</ele>
        <time>2020-09-12T01:04:15Z</time>
      </trkpt>
      <trkpt lat="42.5404" lon="2.5935">
        <ele>673</ele>
        <time>2020-09-12T01:04:30Z</time>
      </trkpt>
      <trkpt lat="42.53962" lon="2.593">
        <ele>671</ele>
        <time>2020-09-12T01:04:59Z</time>
      </trkpt>
      <trkpt lat="42.54018" lon="2.59296">
        <ele>662</ele>
        <time>2020-09-12T01:05:17Z</time>
      </trkpt>
      <trkpt lat="42.53929" lon="2.59247">
        <ele>664</ele>
        <time>2020-09-12T01:05:49Z</time>
      </trkpt>
      <trkpt lat="42.53899" lon="2.59165">
        <ele>642</ele>
        <time>2020-09-12T01:06:12Z</time>
      </trkpt>
      <trkpt lat="42.53806" lon="2.59111">
        <ele>638</ele>
        <time>2020-09-12T01:06:46Z</time>
      </trkpt>
      <trkpt lat="42.53724" lon="2.59111">
        <ele>639</ele>
        <time>2020-09-12T01:07:13Z</time>
      </trkpt>
      <trkpt lat="42.53716" lon="2.59034">
        <ele>636</ele>
        <time>2020-09-12T01:07:32Z</time>
      </trkpt>
      <trkpt lat="42.5371" lon="2.59">
        <ele>640</ele>
        <time>2020-09-12T01:07:41Z</time>
      </trkpt>
      <trkpt lat="42.53664" lon="2.58961">
        <ele>653</ele>
        <time>2020-09-12T01:07:59Z</time>
      </trkpt>
      <trkpt lat="42.53732" lon="2.58974">
        <ele>649</ele>
        <time>2020-09-12T01:08:22Z</time>
      </trkpt>
      <trkpt lat="42.53656" lon="2.58935">
        <ele>660</ele>
        <time>2020-09-12T01:08:49Z</time>
      </trkpt>
      <trkpt lat="42.53698" lon="2.58927">
        <ele>666</ele>
        <time>2020-09-12T01:09:03Z</time>
      </trkpt>
      <trkpt lat="42.53624" lon="2.58843">
        <ele>675</ele>
        <time>2020-09-12T01:09:35Z</time>
      </trkpt>
      <trkpt lat="42.5367" lon="2.58882">
        <ele>678</ele>
        <time>2020-09-12T01:09:53Z</time>
      </trkpt>
      <trkpt lat="42.53754" lon="2.58858">
        <ele>686</ele>
        <time>2020-09-12T01:10:22Z</time>
      </trkpt>
      <trkpt lat="42.5385" lon="2.58839">
        <ele>688</ele>
        <time>2020-09-12T01:10:54Z</time>
      </trkpt>
      <trkpt lat="42.5382" lon="2.58805">
        <ele>697</ele>
        <time>2020-09-12T01:11:07Z</time>
      </trkpt>
      <trkpt lat="42.53887" lon="2.5874">
        <ele>715</ele>
        <time>2020-09-12T01:11:35Z</time>
      </trkpt>
      <trkpt lat="42.53969" lon="2.58686">
        <ele>732</ele>
        <time>2020-09-12T01:12:05Z</time>
      </trkpt>
      <trkpt lat="42.54" lon="2.58768">
        <ele>718</ele>
        <time>2020-09-12T01:12:28Z</time>
      </trkpt>
      <trkpt lat="42.54073" lon="2.58805">
        <ele>724</ele>
        <time>2020-09-12T01:12:54Z</time>
      </trkpt>
      <trkpt lat="42.54203" lon="2.58787">
        <ele>747</ele>
        <time>2020-09-12T01:13:37Z</time>
      </trkpt>
      <trkpt lat="42.5428" lon="2.5888">
        <ele>735</ele>
        <time>2020-09-12T01:14:12Z</time>
      </trkpt>
      <trkpt lat="42.54381" lon="2.5891">
        <ele>740</ele>
        <time>2020-09-12T01:14:46Z</time>
      </trkpt>
      <trkpt lat="42.54497" lon="2.58779">
        <ele>769</ele>
        <time>2020-09-12T01:15:37Z</time>
      </trkpt>
      <trkpt lat="42.54549" lon="2.58794">
        <ele>769</ele>
        <time>2020-09-12T01:15:54Z</time>
      </trkpt>
      <trkpt lat="42.54612" lon="2.58802">
        <ele>777</ele>
        <time>2020-09-12T01:16:15Z</time>
      </trkpt>
      <trkpt lat="42.54657" lon="2.58779">
        <ele>789</ele>
        <time>2020-09-12T01:16:31Z</time>
      </trkpt>
    </trkseg>
  </trk>
</gpx>